BAW54A EGLL-VVNB
Flight info
| Callsign | BAW54A |
|---|---|
| Flight time | 10h 58m |
| Altitude | 33000 |
| Route | DET L6 DVR L9 KONAN UL607 MATUG DCT GUBAX DCT BOREP DCT ENITA DCT PEPIK DCT BALAP DCT NARKA DCT RULES DCT ELROM DCT MOBRA DCT IDARU/N0487F350 DCT DINRO N743 UDROS UM859 KARDE UL851 TBN UM11 REBLO DCT MATAL T916 SUBUT T923 ERLEV M11 RODAR A909 ABDAN/N0490F370 A909 NINOP B801 RANAH L750 MERUN G452 LKN R460 CEA/N0491F390 B465 AKSAG B214 LADON/K0909F390 B214 BQ W21 HUVAN HUVAN3H |
| Aircraft | A35K/H-SDE2E3GHIJ3J4J5LM1ORWXY/LB1D1 |
Departure
| Time | 2026-05-07 21:09 |
|---|---|
| Airport | London Heathrow Airport (EGLL) |
Arrival
| Time | 2026-05-08 08:08 |
|---|---|
| Airport | Noi Bai International Airport (VVNB) |
| Time | Latitude | Longitude | Altitude | Speed | Heading |
|---|---|---|---|---|---|
| 2026-05-07 20:48 | 51.47050 | -0.47730 | 84 ft | 0 kts | 90° |
| 2026-05-07 20:57 | 51.47050 | -0.47738 | 84 ft | 2 kts | 90° |
| 2026-05-07 20:58 | 51.47050 | -0.47762 | 84 ft | 2 kts | 90° |
| 2026-05-07 20:58 | 51.47050 | -0.47786 | 84 ft | 2 kts | 93° |
| 2026-05-07 20:58 | 51.47052 | -0.47810 | 84 ft | 2 kts | 112° |
| 2026-05-07 20:58 | 51.47060 | -0.47831 | 84 ft | 2 kts | 127° |
| 2026-05-07 20:59 | 51.47069 | -0.47849 | 83 ft | 2 kts | 141° |
| 2026-05-07 20:59 | 51.47082 | -0.47863 | 83 ft | 2 kts | 156° |
| 2026-05-07 20:59 | 51.47096 | -0.47870 | 83 ft | 2 kts | 171° |
| 2026-05-07 20:59 | 51.47105 | -0.47872 | 83 ft | 0 kts | 180° |
| 2026-05-07 21:00 | 51.47109 | -0.47872 | 83 ft | 0 kts | 180° |
| 2026-05-07 21:01 | 51.47105 | -0.47872 | 83 ft | 1 kts | 180° |
| 2026-05-07 21:02 | 51.47059 | -0.47872 | 84 ft | 12 kts | 181° |
| 2026-05-07 21:02 | 51.46978 | -0.47871 | 85 ft | 11 kts | 179° |
| 2026-05-07 21:02 | 51.46896 | -0.47868 | 85 ft | 11 kts | 179° |
| 2026-05-07 21:02 | 51.46812 | -0.47867 | 85 ft | 12 kts | 179° |
| 2026-05-07 21:03 | 51.46761 | -0.47868 | 85 ft | 1 kts | 203° |
| 2026-05-07 21:03 | 51.46750 | -0.47880 | 85 ft | 6 kts | 223° |
| 2026-05-07 21:03 | 51.46742 | -0.48035 | 85 ft | 16 kts | 272° |
| 2026-05-07 21:03 | 51.46742 | -0.48230 | 83 ft | 17 kts | 270° |
| 2026-05-07 21:04 | 51.46741 | -0.48435 | 82 ft | 19 kts | 270° |
| 2026-05-07 21:04 | 51.46740 | -0.48629 | 81 ft | 7 kts | 269° |
| 2026-05-07 21:04 | 51.46737 | -0.48705 | 81 ft | 4 kts | 257° |
| 2026-05-07 21:04 | 51.46720 | -0.48740 | 81 ft | 4 kts | 213° |
| 2026-05-07 21:05 | 51.46692 | -0.48746 | 81 ft | 4 kts | 182° |
| 2026-05-07 21:05 | 51.46685 | -0.48746 | 81 ft | 0 kts | 184° |
| 2026-05-07 21:06 | 51.46680 | -0.48747 | 81 ft | 1 kts | 184° |
| 2026-05-07 21:06 | 51.46655 | -0.48750 | 81 ft | 5 kts | 186° |
| 2026-05-07 21:06 | 51.46644 | -0.48753 | 81 ft | 0 kts | 195° |
| 2026-05-07 21:06 | 51.46643 | -0.48754 | 81 ft | 1 kts | 195° |
| 2026-05-07 21:07 | 51.46613 | -0.48767 | 81 ft | 6 kts | 197° |
| 2026-05-07 21:07 | 51.46566 | -0.48786 | 81 ft | 7 kts | 189° |
| 2026-05-07 21:07 | 51.46517 | -0.48776 | 81 ft | 7 kts | 158° |
| 2026-05-07 21:07 | 51.46484 | -0.48716 | 81 ft | 7 kts | 107° |
| 2026-05-07 21:08 | 51.46479 | -0.48669 | 81 ft | 0 kts | 96° |
| 2026-05-07 21:08 | 51.46479 | -0.48665 | 81 ft | 1 kts | 90° |
| 2026-05-07 21:08 | 51.46479 | -0.48658 | 81 ft | 0 kts | 90° |
| 2026-05-07 21:08 | 51.46479 | -0.48473 | 81 ft | 47 kts | 91° |
| 2026-05-07 21:09 | 51.46479 | -0.47600 | 85 ft | 107 kts | 90° |
| 2026-05-07 21:09 | 51.46484 | -0.46114 | 89 ft | 157 kts | 91° |
| 2026-05-07 21:09 | 51.46466 | -0.44189 | 232 ft | 186 kts | 92° |
| 2026-05-07 21:09 | 51.46466 | -0.42085 | 777 ft | 188 kts | 92° |
| 2026-05-07 21:10 | 51.46166 | -0.40144 | 1251 ft | 182 kts | 120° |
| 2026-05-07 21:10 | 51.45404 | -0.38498 | 1479 ft | 191 kts | 129° |
| 2026-05-07 21:10 | 51.44709 | -0.36680 | 1696 ft | 201 kts | 114° |
| 2026-05-07 21:10 | 51.44191 | -0.34547 | 2009 ft | 207 kts | 112° |
| 2026-05-07 21:11 | 51.43671 | -0.32327 | 2231 ft | 220 kts | 111° |
| 2026-05-07 21:11 | 51.43143 | -0.29981 | 2515 ft | 232 kts | 111° |
| 2026-05-07 21:11 | 51.42216 | -0.24768 | 3272 ft | 252 kts | 103° |
| 2026-05-07 21:12 | 51.41864 | -0.21978 | 3828 ft | 256 kts | 102° |
| 2026-05-07 21:12 | 51.41508 | -0.19208 | 4391 ft | 258 kts | 102° |
| 2026-05-07 21:12 | 51.41135 | -0.16393 | 4944 ft | 261 kts | 103° |
| 2026-05-07 21:12 | 51.40751 | -0.13548 | 5495 ft | 264 kts | 103° |
| 2026-05-07 21:13 | 51.40357 | -0.10672 | 6050 ft | 266 kts | 103° |
| 2026-05-07 21:13 | 51.39956 | -0.07768 | 6592 ft | 269 kts | 103° |
| 2026-05-07 21:13 | 51.39554 | -0.04856 | 7114 ft | 272 kts | 103° |
| 2026-05-07 21:13 | 51.39140 | -0.01863 | 7639 ft | 275 kts | 103° |
| 2026-05-07 21:14 | 51.38725 | 0.01117 | 8152 ft | 278 kts | 103° |
| 2026-05-07 21:14 | 51.38300 | 0.04168 | 8664 ft | 281 kts | 103° |
| 2026-05-07 21:14 | 51.37877 | 0.07196 | 9161 ft | 284 kts | 103° |
| 2026-05-07 21:14 | 51.37442 | 0.10303 | 9660 ft | 287 kts | 103° |
| 2026-05-07 21:15 | 51.37002 | 0.13439 | 10155 ft | 290 kts | 103° |
| 2026-05-07 21:15 | 51.36558 | 0.16594 | 10484 ft | 299 kts | 103° |
| 2026-05-07 21:15 | 51.36094 | 0.19888 | 10735 ft | 310 kts | 103° |
| 2026-05-07 21:15 | 51.35606 | 0.23343 | 10975 ft | 322 kts | 103° |
| 2026-05-07 21:16 | 51.35104 | 0.26887 | 11217 ft | 333 kts | 103° |
| 2026-05-07 21:16 | 51.34587 | 0.30531 | 11452 ft | 345 kts | 103° |
| 2026-05-07 21:16 | 51.34051 | 0.34303 | 11678 ft | 356 kts | 103° |
| 2026-05-07 21:16 | 51.33494 | 0.38207 | 11903 ft | 367 kts | 103° |
| 2026-05-07 21:17 | 51.32919 | 0.42234 | 12135 ft | 377 kts | 103° |
| 2026-05-07 21:17 | 51.32327 | 0.46355 | 12370 ft | 387 kts | 103° |
| 2026-05-07 21:17 | 51.31727 | 0.50536 | 12670 ft | 395 kts | 103° |
| 2026-05-07 21:17 | 51.31112 | 0.54808 | 13101 ft | 398 kts | 103° |
| 2026-05-07 21:18 | 51.30483 | 0.59115 | 13566 ft | 400 kts | 105° |
| 2026-05-07 21:18 | 51.29731 | 0.63442 | 13995 ft | 402 kts | 107° |
| 2026-05-07 21:18 | 51.28983 | 0.67540 | 14412 ft | 404 kts | 108° |
| 2026-05-07 21:18 | 51.28207 | 0.71779 | 14827 ft | 407 kts | 108° |
| 2026-05-07 21:19 | 51.27419 | 0.76076 | 15194 ft | 410 kts | 108° |
| 2026-05-07 21:19 | 51.26629 | 0.80372 | 15582 ft | 413 kts | 108° |
| 2026-05-07 21:19 | 51.25819 | 0.84769 | 15962 ft | 416 kts | 108° |
| 2026-05-07 21:19 | 51.25013 | 0.89144 | 16351 ft | 418 kts | 108° |
| 2026-05-07 21:20 | 51.24190 | 0.93589 | 16738 ft | 420 kts | 108° |
| 2026-05-07 21:20 | 51.23360 | 0.98065 | 17123 ft | 423 kts | 107° |
| 2026-05-07 21:20 | 51.22535 | 1.02506 | 17488 ft | 425 kts | 107° |
| 2026-05-07 21:20 | 51.21722 | 1.06876 | 17839 ft | 427 kts | 107° |
| 2026-05-07 21:21 | 51.20880 | 1.11391 | 18188 ft | 429 kts | 107° |
| 2026-05-07 21:21 | 51.20038 | 1.15896 | 18520 ft | 432 kts | 107° |
| 2026-05-07 21:21 | 51.19192 | 1.20404 | 18841 ft | 434 kts | 107° |
| 2026-05-07 21:21 | 51.18352 | 1.24872 | 19163 ft | 437 kts | 107° |
| 2026-05-07 21:22 | 51.17484 | 1.29490 | 19481 ft | 439 kts | 107° |
| 2026-05-07 21:22 | 51.16747 | 1.34054 | 19784 ft | 442 kts | 103° |
| 2026-05-07 21:22 | 51.16190 | 1.38871 | 20105 ft | 445 kts | 98° |
| 2026-05-07 21:22 | 51.15855 | 1.43691 | 20415 ft | 447 kts | 95° |
| 2026-05-07 21:23 | 51.15617 | 1.48611 | 20733 ft | 449 kts | 95° |
| 2026-05-07 21:23 | 51.15390 | 1.53597 | 21036 ft | 451 kts | 94° |
| 2026-05-07 21:23 | 51.15164 | 1.58508 | 21348 ft | 453 kts | 94° |
| 2026-05-07 21:23 | 51.14932 | 1.63419 | 21655 ft | 454 kts | 95° |
| 2026-05-07 21:24 | 51.14707 | 1.68064 | 21934 ft | 456 kts | 95° |
| 2026-05-07 21:24 | 51.14452 | 1.73245 | 22240 ft | 457 kts | 95° |
| 2026-05-07 21:24 | 51.14199 | 1.78306 | 22511 ft | 459 kts | 95° |
| 2026-05-07 21:24 | 51.13943 | 1.83373 | 22783 ft | 461 kts | 95° |
| 2026-05-07 21:25 | 51.13682 | 1.88506 | 23056 ft | 463 kts | 95° |
| 2026-05-07 21:25 | 51.13419 | 1.93588 | 23312 ft | 465 kts | 95° |
| 2026-05-07 21:25 | 51.13163 | 1.98493 | 23556 ft | 467 kts | 95° |
| 2026-05-07 21:25 | 51.12900 | 2.03513 | 23809 ft | 468 kts | 95° |
| 2026-05-07 21:26 | 51.12626 | 2.08686 | 24055 ft | 470 kts | 95° |
| 2026-05-07 21:26 | 51.12351 | 2.13831 | 24275 ft | 472 kts | 95° |
| 2026-05-07 21:26 | 51.12073 | 2.18989 | 24496 ft | 474 kts | 95° |
| 2026-05-07 21:26 | 51.11790 | 2.24191 | 24713 ft | 476 kts | 95° |
| 2026-05-07 21:27 | 51.11502 | 2.29437 | 24921 ft | 478 kts | 95° |
| 2026-05-07 21:27 | 51.11213 | 2.34665 | 25154 ft | 479 kts | 95° |
| 2026-05-07 21:27 | 51.10921 | 2.39918 | 25361 ft | 480 kts | 95° |
| 2026-05-07 21:27 | 51.10624 | 2.45207 | 25542 ft | 483 kts | 95° |
| 2026-05-07 21:28 | 51.10324 | 2.50495 | 25727 ft | 484 kts | 95° |
| 2026-05-07 21:28 | 51.10020 | 2.55809 | 25918 ft | 486 kts | 95° |
| 2026-05-07 21:28 | 51.09634 | 2.61185 | 26098 ft | 487 kts | 98° |
| 2026-05-07 21:28 | 51.09071 | 2.66415 | 26291 ft | 488 kts | 103° |
| 2026-05-07 21:29 | 51.08309 | 2.71668 | 26483 ft | 488 kts | 106° |
| 2026-05-07 21:29 | 51.07399 | 2.76820 | 26650 ft | 489 kts | 107° |
| 2026-05-07 21:29 | 51.06452 | 2.82009 | 26814 ft | 490 kts | 107° |
| 2026-05-07 21:29 | 51.05495 | 2.87218 | 26973 ft | 491 kts | 107° |
| 2026-05-07 21:30 | 51.04536 | 2.92438 | 27118 ft | 493 kts | 107° |
| 2026-05-07 21:30 | 51.03587 | 2.97606 | 27251 ft | 494 kts | 107° |
| 2026-05-07 21:30 | 51.02624 | 3.02848 | 27393 ft | 496 kts | 107° |
| 2026-05-07 21:30 | 51.01658 | 3.08096 | 27532 ft | 497 kts | 107° |
| 2026-05-07 21:31 | 51.00686 | 3.13362 | 27688 ft | 497 kts | 107° |
| 2026-05-07 21:31 | 50.99720 | 3.18583 | 27826 ft | 499 kts | 107° |
| 2026-05-07 21:31 | 50.98745 | 3.23846 | 27954 ft | 500 kts | 107° |
| 2026-05-07 21:31 | 50.97767 | 3.29107 | 28142 ft | 499 kts | 107° |
| 2026-05-07 21:32 | 50.96785 | 3.34381 | 28357 ft | 499 kts | 107° |
| 2026-05-07 21:32 | 50.95806 | 3.39618 | 28557 ft | 498 kts | 107° |
| 2026-05-07 21:32 | 50.94835 | 3.44807 | 28738 ft | 498 kts | 107° |
| 2026-05-07 21:32 | 50.93838 | 3.50107 | 28930 ft | 498 kts | 107° |
| 2026-05-07 21:33 | 50.92853 | 3.55334 | 29121 ft | 497 kts | 107° |
| 2026-05-07 21:33 | 50.91866 | 3.60550 | 29289 ft | 497 kts | 107° |
| 2026-05-07 21:33 | 50.90882 | 3.65733 | 29458 ft | 497 kts | 108° |
| 2026-05-07 21:33 | 50.89901 | 3.70863 | 29626 ft | 496 kts | 108° |
| 2026-05-07 21:34 | 50.88912 | 3.75952 | 29794 ft | 496 kts | 108° |
| 2026-05-07 21:34 | 50.87889 | 3.81161 | 29958 ft | 495 kts | 108° |
| 2026-05-07 21:34 | 50.86876 | 3.86328 | 30129 ft | 495 kts | 108° |
| 2026-05-07 21:34 | 50.85851 | 3.91561 | 30273 ft | 495 kts | 108° |
| 2026-05-07 21:35 | 50.84839 | 3.96733 | 30413 ft | 495 kts | 108° |
| 2026-05-07 21:35 | 50.83836 | 4.01855 | 30549 ft | 495 kts | 108° |
| 2026-05-07 21:35 | 50.82819 | 4.07047 | 30676 ft | 495 kts | 108° |
| 2026-05-07 21:35 | 50.81807 | 4.12204 | 30805 ft | 495 kts | 108° |
| 2026-05-07 21:36 | 50.80797 | 4.17335 | 30949 ft | 494 kts | 108° |
| 2026-05-07 21:36 | 50.79777 | 4.22509 | 31093 ft | 494 kts | 108° |
| 2026-05-07 21:36 | 50.78764 | 4.27631 | 31218 ft | 493 kts | 108° |
| 2026-05-07 21:36 | 50.77739 | 4.32806 | 31333 ft | 493 kts | 108° |
| 2026-05-07 21:37 | 50.76716 | 4.37955 | 31442 ft | 493 kts | 108° |
| 2026-05-07 21:37 | 50.75690 | 4.43109 | 31559 ft | 493 kts | 108° |
| 2026-05-07 21:37 | 50.74667 | 4.48242 | 31675 ft | 493 kts | 108° |
| 2026-05-07 21:37 | 50.73666 | 4.53236 | 31774 ft | 493 kts | 108° |
| 2026-05-07 21:38 | 50.72638 | 4.58348 | 31883 ft | 493 kts | 108° |
| 2026-05-07 21:38 | 50.71632 | 4.63392 | 32001 ft | 492 kts | 108° |
| 2026-05-07 21:38 | 50.69653 | 4.73644 | 32057 ft | 495 kts | 108° |
| 2026-05-07 21:39 | 50.67647 | 4.84030 | 32005 ft | 500 kts | 108° |
| 2026-05-07 21:39 | 50.65583 | 4.94521 | 31920 ft | 504 kts | 109° |
| 2026-05-07 21:40 | 50.63409 | 5.05082 | 31792 ft | 509 kts | 109° |
| 2026-05-07 21:40 | 50.61219 | 5.15645 | 31805 ft | 510 kts | 109° |
| 2026-05-07 21:41 | 50.59023 | 5.26227 | 31964 ft | 509 kts | 109° |
| 2026-05-07 21:41 | 50.56846 | 5.36688 | 32097 ft | 508 kts | 109° |
| 2026-05-07 21:42 | 50.54657 | 5.47168 | 32204 ft | 508 kts | 109° |
| 2026-05-07 21:42 | 50.52493 | 5.57472 | 32299 ft | 509 kts | 108° |
| 2026-05-07 21:43 | 50.50790 | 5.67378 | 32388 ft | 509 kts | 103° |
| 2026-05-07 21:43 | 50.49383 | 5.78419 | 32522 ft | 508 kts | 102° |
| 2026-05-07 21:44 | 50.48685 | 5.83885 | 32708 ft | 505 kts | 102° |
| 2026-05-07 21:44 | 50.47992 | 5.89239 | 32877 ft | 503 kts | 102° |
| 2026-05-07 21:44 | 50.47368 | 5.94011 | 33027 ft | 501 kts | 102° |
| 2026-05-07 21:44 | 50.46777 | 5.98516 | 33027 ft | 502 kts | 102° |
| 2026-05-07 21:45 | 50.45299 | 6.09714 | 33039 ft | 504 kts | 102° |
| 2026-05-07 21:45 | 50.43873 | 6.20456 | 33045 ft | 505 kts | 102° |
| 2026-05-07 21:46 | 50.42433 | 6.31209 | 33049 ft | 507 kts | 102° |
| 2026-05-07 21:46 | 50.41263 | 6.41968 | 33307 ft | 502 kts | 97° |
| 2026-05-07 21:47 | 50.40841 | 6.47408 | 33547 ft | 498 kts | 97° |
| 2026-05-07 21:47 | 50.40436 | 6.52746 | 33805 ft | 494 kts | 97° |
| 2026-05-07 21:47 | 50.40037 | 6.58006 | 34064 ft | 490 kts | 97° |
| 2026-05-07 21:47 | 50.39634 | 6.63281 | 34318 ft | 486 kts | 97° |
| 2026-05-07 21:48 | 50.39234 | 6.68464 | 34555 ft | 482 kts | 98° |
| 2026-05-07 21:48 | 50.38829 | 6.73699 | 34565 ft | 483 kts | 98° |
| 2026-05-07 21:48 | 50.38010 | 6.84111 | 34445 ft | 487 kts | 98° |
| 2026-05-07 21:49 | 50.37172 | 6.94610 | 34304 ft | 491 kts | 98° |
| 2026-05-07 21:49 | 50.36319 | 7.05177 | 34144 ft | 496 kts | 98° |
| 2026-05-07 21:50 | 50.35442 | 7.15926 | 33951 ft | 500 kts | 98° |
| 2026-05-07 21:50 | 50.35006 | 7.21227 | 33848 ft | 503 kts | 98° |
| 2026-05-07 21:50 | 50.34553 | 7.26698 | 33742 ft | 505 kts | 98° |
| 2026-05-07 21:51 | 50.33647 | 7.37533 | 33594 ft | 508 kts | 98° |
| 2026-05-07 21:51 | 50.32732 | 7.48375 | 33615 ft | 507 kts | 98° |
| 2026-05-07 21:52 | 50.31803 | 7.59260 | 33688 ft | 506 kts | 97° |
| 2026-05-07 21:52 | 50.30872 | 7.70078 | 33750 ft | 506 kts | 98° |
| 2026-05-07 21:53 | 50.29932 | 7.80887 | 33783 ft | 506 kts | 98° |
| 2026-05-07 21:53 | 50.28974 | 7.91710 | 33796 ft | 506 kts | 99° |
| 2026-05-07 21:54 | 50.27841 | 8.02529 | 33806 ft | 506 kts | 100° |
| 2026-05-07 21:54 | 50.26641 | 8.13332 | 33811 ft | 507 kts | 100° |
| 2026-05-07 21:55 | 50.25449 | 8.24101 | 33840 ft | 507 kts | 100° |
| 2026-05-07 21:55 | 50.24252 | 8.34891 | 33848 ft | 507 kts | 100° |
| 2026-05-07 21:56 | 50.23049 | 8.45677 | 33864 ft | 507 kts | 100° |
| 2026-05-07 21:56 | 50.21831 | 8.56497 | 33902 ft | 507 kts | 99° |
| 2026-05-07 21:57 | 50.20607 | 8.67280 | 33927 ft | 507 kts | 100° |
| 2026-05-07 21:57 | 50.19381 | 8.78030 | 33940 ft | 507 kts | 100° |
| 2026-05-07 21:58 | 50.18131 | 8.88882 | 33959 ft | 507 kts | 100° |
| 2026-05-07 21:58 | 50.16874 | 8.99683 | 33976 ft | 507 kts | 100° |
| 2026-05-07 21:59 | 50.15613 | 9.10430 | 33985 ft | 507 kts | 100° |
| 2026-05-07 21:59 | 50.14332 | 9.21249 | 33974 ft | 508 kts | 100° |
| 2026-05-07 22:00 | 50.13044 | 9.32041 | 33989 ft | 508 kts | 100° |
| 2026-05-07 22:00 | 50.11744 | 9.42844 | 33992 ft | 508 kts | 100° |
| 2026-05-07 22:01 | 50.10433 | 9.53651 | 34011 ft | 508 kts | 100° |
| 2026-05-07 22:01 | 50.09106 | 9.64487 | 34029 ft | 508 kts | 100° |
| 2026-05-07 22:02 | 50.07780 | 9.75260 | 34037 ft | 507 kts | 101° |
| 2026-05-07 22:02 | 50.06454 | 9.85957 | 34047 ft | 507 kts | 101° |
| 2026-05-07 22:03 | 50.05107 | 9.96718 | 34028 ft | 508 kts | 101° |
| 2026-05-07 22:03 | 50.03748 | 10.07477 | 34016 ft | 509 kts | 101° |
| 2026-05-07 22:04 | 50.02375 | 10.18253 | 34015 ft | 509 kts | 101° |
| 2026-05-07 22:04 | 50.01003 | 10.28943 | 34025 ft | 509 kts | 101° |
| 2026-05-07 22:05 | 49.99613 | 10.39693 | 34039 ft | 509 kts | 101° |
| 2026-05-07 22:05 | 49.98212 | 10.50442 | 34059 ft | 509 kts | 101° |
| 2026-05-07 22:06 | 49.96798 | 10.61215 | 34068 ft | 509 kts | 101° |
| 2026-05-07 22:06 | 49.95366 | 10.71941 | 34049 ft | 510 kts | 102° |
| 2026-05-07 22:07 | 49.93916 | 10.82649 | 34039 ft | 510 kts | 102° |
| 2026-05-07 22:07 | 49.92451 | 10.93378 | 34049 ft | 510 kts | 102° |
| 2026-05-07 22:08 | 49.90971 | 11.04133 | 34075 ft | 510 kts | 102° |
| 2026-05-07 22:08 | 49.89494 | 11.14766 | 34063 ft | 510 kts | 102° |
| 2026-05-07 22:09 | 49.87967 | 11.25484 | 34040 ft | 511 kts | 102° |
| 2026-05-07 22:09 | 49.86444 | 11.36203 | 34038 ft | 511 kts | 102° |
| 2026-05-07 22:10 | 49.84916 | 11.46970 | 34019 ft | 512 kts | 102° |
| 2026-05-07 22:10 | 49.83397 | 11.57620 | 34003 ft | 512 kts | 102° |
| 2026-05-07 22:11 | 49.81848 | 11.68414 | 34001 ft | 512 kts | 103° |
| 2026-05-07 22:11 | 49.80306 | 11.79115 | 33987 ft | 513 kts | 103° |
| 2026-05-07 22:12 | 49.78743 | 11.89869 | 33991 ft | 513 kts | 103° |
| 2026-05-07 22:12 | 49.77179 | 12.00544 | 33980 ft | 513 kts | 103° |
| 2026-05-07 22:13 | 49.75593 | 12.11305 | 33976 ft | 513 kts | 103° |
| 2026-05-07 22:13 | 49.74008 | 12.21995 | 33980 ft | 513 kts | 103° |
| 2026-05-07 22:14 | 49.72400 | 12.32774 | 33977 ft | 514 kts | 103° |
| 2026-05-07 22:14 | 49.70795 | 12.43438 | 33989 ft | 514 kts | 103° |
| 2026-05-07 22:15 | 49.69013 | 12.54096 | 33983 ft | 514 kts | 105° |
| 2026-05-07 22:15 | 49.67112 | 12.64734 | 33978 ft | 515 kts | 105° |
| 2026-05-07 22:16 | 49.65213 | 12.75353 | 33969 ft | 515 kts | 106° |
| 2026-05-07 22:16 | 49.63311 | 12.85956 | 33980 ft | 515 kts | 106° |
| 2026-05-07 22:17 | 49.61405 | 12.96509 | 33998 ft | 515 kts | 106° |
| 2026-05-07 22:17 | 49.59478 | 13.07109 | 33980 ft | 516 kts | 106° |
| 2026-05-07 22:18 | 49.56565 | 13.23018 | 33989 ft | 516 kts | 106° |
| 2026-05-07 22:19 | 49.54617 | 13.33586 | 34001 ft | 516 kts | 106° |
| 2026-05-07 22:19 | 49.52646 | 13.44217 | 34046 ft | 515 kts | 106° |
| 2026-05-07 22:20 | 49.50686 | 13.54732 | 34072 ft | 516 kts | 107° |
| 2026-05-07 22:20 | 49.48700 | 13.65321 | 34072 ft | 516 kts | 107° |
| 2026-05-07 22:21 | 49.46711 | 13.75897 | 34076 ft | 516 kts | 107° |
| 2026-05-07 22:21 | 49.44726 | 13.86382 | 34095 ft | 516 kts | 107° |
| 2026-05-07 22:22 | 49.42707 | 13.96971 | 34124 ft | 516 kts | 107° |
| 2026-05-07 22:22 | 49.40695 | 14.07462 | 34137 ft | 516 kts | 107° |
| 2026-05-07 22:23 | 49.38663 | 14.18000 | 34134 ft | 517 kts | 107° |
| 2026-05-07 22:23 | 49.36616 | 14.28558 | 34143 ft | 517 kts | 107° |
| 2026-05-07 22:24 | 49.34567 | 14.39068 | 34163 ft | 517 kts | 107° |
| 2026-05-07 22:24 | 49.32510 | 14.49559 | 34197 ft | 516 kts | 108° |
| 2026-05-07 22:25 | 49.30452 | 14.59997 | 34228 ft | 516 kts | 108° |
| 2026-05-07 22:25 | 49.28366 | 14.70536 | 34253 ft | 516 kts | 108° |
| 2026-05-07 22:26 | 49.26295 | 14.80960 | 34263 ft | 516 kts | 108° |
| 2026-05-07 22:26 | 49.24198 | 14.91441 | 34262 ft | 516 kts | 109° |
| 2026-05-07 22:27 | 49.22091 | 15.01900 | 34267 ft | 517 kts | 109° |
| 2026-05-07 22:27 | 49.19978 | 15.12340 | 34268 ft | 517 kts | 109° |
| 2026-05-07 22:28 | 49.17853 | 15.22778 | 34300 ft | 516 kts | 109° |
| 2026-05-07 22:28 | 49.15713 | 15.33230 | 34325 ft | 516 kts | 109° |
| 2026-05-07 22:29 | 49.13560 | 15.43695 | 34332 ft | 516 kts | 109° |
| 2026-05-07 22:29 | 49.11408 | 15.54096 | 34360 ft | 516 kts | 109° |
| 2026-05-07 22:30 | 49.09248 | 15.64492 | 34400 ft | 515 kts | 109° |
| 2026-05-07 22:30 | 49.07094 | 15.74829 | 34427 ft | 515 kts | 110° |
| 2026-05-07 22:31 | 49.04924 | 15.85181 | 34450 ft | 514 kts | 110° |
| 2026-05-07 22:31 | 49.02732 | 15.95566 | 34462 ft | 514 kts | 110° |
| 2026-05-07 22:32 | 49.00551 | 16.05846 | 34501 ft | 513 kts | 110° |
| 2026-05-07 22:32 | 48.98350 | 16.16168 | 34523 ft | 512 kts | 110° |
| 2026-05-07 22:33 | 48.96148 | 16.26441 | 34532 ft | 512 kts | 110° |
| 2026-05-07 22:33 | 48.93933 | 16.36717 | 34518 ft | 513 kts | 110° |
| 2026-05-07 22:34 | 48.91714 | 16.46964 | 34521 ft | 513 kts | 110° |
| 2026-05-07 22:34 | 48.89493 | 16.57160 | 34574 ft | 511 kts | 110° |
| 2026-05-07 22:35 | 48.87226 | 16.67393 | 34643 ft | 510 kts | 111° |
| 2026-05-07 22:35 | 48.84977 | 16.77604 | 34676 ft | 510 kts | 111° |
| 2026-05-07 22:36 | 48.82733 | 16.87789 | 34683 ft | 509 kts | 111° |
| 2026-05-07 22:36 | 48.80473 | 16.97989 | 34700 ft | 509 kts | 111° |
| 2026-05-07 22:37 | 48.78122 | 17.07959 | 34721 ft | 507 kts | 115° |
| 2026-05-07 22:37 | 48.75178 | 17.17658 | 34734 ft | 505 kts | 119° |
| 2026-05-07 22:38 | 48.72120 | 17.27251 | 34785 ft | 505 kts | 119° |
| 2026-05-07 22:38 | 48.69083 | 17.36758 | 34794 ft | 505 kts | 119° |
| 2026-05-07 22:39 | 48.66034 | 17.46296 | 34797 ft | 505 kts | 119° |
| 2026-05-07 22:39 | 48.62978 | 17.55824 | 34825 ft | 505 kts | 119° |
| 2026-05-07 22:40 | 48.59905 | 17.65363 | 34859 ft | 505 kts | 120° |
| 2026-05-07 22:40 | 48.56846 | 17.74864 | 34889 ft | 504 kts | 120° |
| 2026-05-07 22:41 | 48.53785 | 17.84326 | 34839 ft | 504 kts | 120° |
| 2026-05-07 22:41 | 48.50688 | 17.93840 | 34825 ft | 504 kts | 120° |
| 2026-05-07 22:42 | 48.47596 | 18.03297 | 34839 ft | 504 kts | 120° |
| 2026-05-07 22:42 | 48.44500 | 18.12737 | 34885 ft | 503 kts | 121° |
| 2026-05-07 22:43 | 48.41414 | 18.22117 | 34928 ft | 503 kts | 121° |
| 2026-05-07 22:43 | 48.38296 | 18.31543 | 34946 ft | 503 kts | 121° |
| 2026-05-07 22:44 | 48.35178 | 18.40945 | 34956 ft | 503 kts | 121° |
| 2026-05-07 22:44 | 48.32065 | 18.50297 | 34967 ft | 504 kts | 121° |
| 2026-05-07 22:45 | 48.28928 | 18.59685 | 34964 ft | 504 kts | 121° |
| 2026-05-07 22:45 | 48.25787 | 18.69058 | 34988 ft | 503 kts | 122° |
| 2026-05-07 22:46 | 48.22656 | 18.78396 | 34999 ft | 503 kts | 122° |
| 2026-05-07 22:46 | 48.19509 | 18.87727 | 35007 ft | 503 kts | 122° |
| 2026-05-07 22:47 | 48.16343 | 18.97071 | 35020 ft | 502 kts | 122° |
| 2026-05-07 22:47 | 48.13180 | 19.06362 | 35012 ft | 503 kts | 122° |
| 2026-05-07 22:48 | 48.10011 | 19.15645 | 35003 ft | 503 kts | 122° |
| 2026-05-07 22:48 | 48.06852 | 19.24941 | 35021 ft | 503 kts | 120° |
| 2026-05-07 22:49 | 48.03965 | 19.34476 | 35005 ft | 504 kts | 119° |
| 2026-05-07 22:49 | 48.01114 | 19.43996 | 35036 ft | 505 kts | 119° |
| 2026-05-07 22:50 | 47.98245 | 19.53538 | 35015 ft | 505 kts | 119° |
| 2026-05-07 22:50 | 47.95374 | 19.63046 | 35027 ft | 504 kts | 119° |
| 2026-05-07 22:51 | 47.92508 | 19.72523 | 35027 ft | 504 kts | 119° |
| 2026-05-07 22:51 | 47.89609 | 19.82080 | 35031 ft | 505 kts | 120° |
| 2026-05-07 22:52 | 47.86697 | 19.91523 | 35020 ft | 505 kts | 120° |
| 2026-05-07 22:52 | 47.83778 | 20.00979 | 35023 ft | 505 kts | 120° |
| 2026-05-07 22:53 | 47.80844 | 20.10487 | 35026 ft | 504 kts | 119° |
| 2026-05-07 22:53 | 47.77925 | 20.19926 | 35026 ft | 503 kts | 119° |
| 2026-05-07 22:54 | 47.75014 | 20.29309 | 35027 ft | 503 kts | 119° |
| 2026-05-07 22:54 | 47.72080 | 20.38735 | 35027 ft | 503 kts | 119° |
| 2026-05-07 22:55 | 47.69148 | 20.48114 | 35030 ft | 503 kts | 119° |
| 2026-05-07 22:55 | 47.66209 | 20.57486 | 35032 ft | 502 kts | 119° |
| 2026-05-07 22:56 | 47.63251 | 20.66883 | 35026 ft | 502 kts | 120° |
| 2026-05-07 22:56 | 47.60316 | 20.76207 | 35030 ft | 501 kts | 120° |
| 2026-05-07 22:57 | 47.57368 | 20.85525 | 35027 ft | 502 kts | 120° |
| 2026-05-07 22:57 | 47.54393 | 20.94873 | 35028 ft | 502 kts | 120° |
| 2026-05-07 22:58 | 47.51416 | 21.04198 | 35023 ft | 502 kts | 120° |
| 2026-05-07 22:58 | 47.48452 | 21.13441 | 35022 ft | 502 kts | 120° |
| 2026-05-07 22:59 | 47.45445 | 21.22786 | 35019 ft | 502 kts | 120° |
| 2026-05-07 22:59 | 47.42459 | 21.32035 | 35019 ft | 502 kts | 120° |
| 2026-05-07 23:00 | 47.39451 | 21.41312 | 35021 ft | 501 kts | 119° |
| 2026-05-07 23:00 | 47.36432 | 21.50594 | 35021 ft | 501 kts | 119° |
| 2026-05-07 23:01 | 47.33438 | 21.59768 | 35019 ft | 501 kts | 119° |
| 2026-05-07 23:01 | 47.30393 | 21.69077 | 35020 ft | 501 kts | 120° |
| 2026-05-07 23:02 | 47.27377 | 21.78289 | 35020 ft | 501 kts | 120° |
| 2026-05-07 23:02 | 47.24474 | 21.87581 | 35019 ft | 503 kts | 116° |
| 2026-05-07 23:03 | 47.22030 | 21.97176 | 35018 ft | 503 kts | 115° |
| 2026-05-07 23:03 | 47.19202 | 22.06522 | 35031 ft | 499 kts | 121° |
| 2026-05-07 23:04 | 47.15729 | 22.15278 | 35023 ft | 496 kts | 127° |
| 2026-05-07 23:04 | 47.11846 | 22.23607 | 35028 ft | 495 kts | 128° |
| 2026-05-07 23:05 | 47.07958 | 22.31899 | 35028 ft | 495 kts | 128° |
| 2026-05-07 23:05 | 47.04071 | 22.40187 | 35024 ft | 495 kts | 128° |
| 2026-05-07 23:06 | 47.00148 | 22.48534 | 35029 ft | 496 kts | 128° |
| 2026-05-07 23:06 | 46.96249 | 22.56809 | 35031 ft | 496 kts | 128° |
| 2026-05-07 23:07 | 46.92330 | 22.65100 | 35035 ft | 497 kts | 129° |
| 2026-05-07 23:07 | 46.88420 | 22.73363 | 35039 ft | 497 kts | 129° |
| 2026-05-07 23:08 | 46.84459 | 22.81653 | 35042 ft | 497 kts | 129° |
| 2026-05-07 23:08 | 46.80535 | 22.89867 | 35046 ft | 497 kts | 128° |
| 2026-05-07 23:09 | 46.76573 | 22.98162 | 35046 ft | 497 kts | 128° |
| 2026-05-07 23:09 | 46.72626 | 23.06398 | 35041 ft | 497 kts | 128° |
| 2026-05-07 23:10 | 46.68705 | 23.14599 | 35047 ft | 497 kts | 128° |
| 2026-05-07 23:10 | 46.64752 | 23.22865 | 35052 ft | 497 kts | 128° |
| 2026-05-07 23:11 | 46.60822 | 23.31061 | 35053 ft | 497 kts | 128° |
| 2026-05-07 23:11 | 46.56855 | 23.39310 | 35052 ft | 497 kts | 128° |
| 2026-05-07 23:12 | 46.52912 | 23.47487 | 35045 ft | 497 kts | 128° |
| 2026-05-07 23:12 | 46.48929 | 23.55725 | 35041 ft | 497 kts | 128° |
| 2026-05-07 23:13 | 46.44981 | 23.63860 | 35035 ft | 497 kts | 128° |
| 2026-05-07 23:13 | 46.40995 | 23.72078 | 35029 ft | 497 kts | 129° |
| 2026-05-07 23:14 | 46.37036 | 23.80220 | 35028 ft | 496 kts | 129° |
| 2026-05-07 23:14 | 46.33076 | 23.88323 | 35028 ft | 497 kts | 129° |
| 2026-05-07 23:15 | 46.29091 | 23.96445 | 35030 ft | 497 kts | 129° |
| 2026-05-07 23:15 | 46.25103 | 24.04549 | 35030 ft | 497 kts | 129° |
| 2026-05-07 23:16 | 46.21093 | 24.12674 | 35034 ft | 497 kts | 129° |
| 2026-05-07 23:16 | 46.17091 | 24.20760 | 35034 ft | 497 kts | 129° |
| 2026-05-07 23:17 | 46.13059 | 24.28880 | 35041 ft | 497 kts | 129° |
| 2026-05-07 23:17 | 46.09056 | 24.36920 | 35032 ft | 497 kts | 128° |
| 2026-05-07 23:18 | 46.05030 | 24.44983 | 35040 ft | 497 kts | 128° |
| 2026-05-07 23:18 | 46.01008 | 24.53019 | 35038 ft | 496 kts | 128° |
| 2026-05-07 23:19 | 45.96972 | 24.61058 | 35039 ft | 496 kts | 128° |
| 2026-05-07 23:19 | 45.92928 | 24.69107 | 35038 ft | 496 kts | 129° |
| 2026-05-07 23:20 | 45.88905 | 24.77096 | 35040 ft | 496 kts | 129° |
| 2026-05-07 23:20 | 45.84822 | 24.85003 | 35052 ft | 495 kts | 131° |
| 2026-05-07 23:21 | 45.80547 | 24.92768 | 35053 ft | 495 kts | 131° |
| 2026-05-07 23:21 | 45.76292 | 25.00465 | 35057 ft | 495 kts | 131° |
| 2026-05-07 23:22 | 45.72045 | 25.08167 | 35060 ft | 495 kts | 131° |
| 2026-05-07 23:22 | 45.67771 | 25.15918 | 35072 ft | 495 kts | 131° |
| 2026-05-07 23:23 | 45.63532 | 25.23596 | 35078 ft | 495 kts | 131° |
| 2026-05-07 23:23 | 45.59288 | 25.31261 | 35078 ft | 494 kts | 131° |
| 2026-05-07 23:24 | 45.55020 | 25.38950 | 35081 ft | 494 kts | 131° |
| 2026-05-07 23:24 | 45.50758 | 25.46605 | 35084 ft | 494 kts | 131° |
| 2026-05-07 23:25 | 45.46471 | 25.54287 | 35090 ft | 494 kts | 131° |
| 2026-05-07 23:25 | 45.42205 | 25.61907 | 35087 ft | 495 kts | 131° |
| 2026-05-07 23:26 | 45.37904 | 25.69584 | 35083 ft | 494 kts | 131° |
| 2026-05-07 23:26 | 45.33630 | 25.77211 | 35083 ft | 494 kts | 131° |
| 2026-05-07 23:27 | 45.27200 | 25.88613 | 35078 ft | 493 kts | 131° |
| 2026-05-07 23:27 | 45.22933 | 25.96146 | 35066 ft | 492 kts | 131° |
| 2026-05-07 23:28 | 45.18620 | 26.03743 | 35053 ft | 493 kts | 131° |
| 2026-05-07 23:28 | 45.14334 | 26.11264 | 35038 ft | 493 kts | 131° |
| 2026-05-07 23:29 | 45.10025 | 26.18810 | 35033 ft | 492 kts | 131° |
| 2026-05-07 23:29 | 45.05732 | 26.26308 | 35032 ft | 493 kts | 131° |
| 2026-05-07 23:30 | 45.01394 | 26.33862 | 35028 ft | 494 kts | 131° |
| 2026-05-07 23:30 | 44.97068 | 26.41376 | 35030 ft | 495 kts | 131° |
| 2026-05-07 23:31 | 44.92730 | 26.48895 | 35031 ft | 496 kts | 131° |
| 2026-05-07 23:31 | 44.88379 | 26.56402 | 35033 ft | 496 kts | 131° |
| 2026-05-07 23:32 | 44.83972 | 26.63948 | 35034 ft | 498 kts | 131° |
| 2026-05-07 23:32 | 44.79606 | 26.71459 | 35035 ft | 498 kts | 132° |
| 2026-05-07 23:33 | 44.75232 | 26.78982 | 35037 ft | 499 kts | 131° |
| 2026-05-07 23:33 | 44.70844 | 26.86504 | 35039 ft | 499 kts | 131° |
| 2026-05-07 23:34 | 44.66433 | 26.94027 | 35041 ft | 500 kts | 131° |
| 2026-05-07 23:34 | 44.62185 | 27.01769 | 35041 ft | 501 kts | 127° |
| 2026-05-07 23:35 | 44.58182 | 27.09759 | 35040 ft | 502 kts | 127° |
| 2026-05-07 23:35 | 44.54168 | 27.17768 | 35038 ft | 502 kts | 127° |
| 2026-05-07 23:36 | 44.50153 | 27.25755 | 35038 ft | 502 kts | 127° |
| 2026-05-07 23:36 | 44.46137 | 27.33723 | 35042 ft | 502 kts | 127° |
| 2026-05-07 23:37 | 44.42108 | 27.41694 | 35046 ft | 503 kts | 126° |
| 2026-05-07 23:37 | 44.38080 | 27.49638 | 35042 ft | 503 kts | 127° |
| 2026-05-07 23:38 | 44.34029 | 27.57611 | 35047 ft | 503 kts | 127° |
| 2026-05-07 23:38 | 44.29945 | 27.65624 | 35051 ft | 504 kts | 127° |
| 2026-05-07 23:39 | 44.25889 | 27.73590 | 35054 ft | 505 kts | 127° |
| 2026-05-07 23:39 | 44.21837 | 27.81519 | 35042 ft | 505 kts | 127° |
| 2026-05-07 23:40 | 44.17741 | 27.89496 | 35048 ft | 506 kts | 127° |
| 2026-05-07 23:40 | 44.13658 | 27.97420 | 35049 ft | 507 kts | 127° |
| 2026-05-07 23:41 | 44.09528 | 28.05406 | 35060 ft | 508 kts | 127° |
| 2026-05-07 23:41 | 44.05408 | 28.13360 | 35061 ft | 509 kts | 127° |
| 2026-05-07 23:42 | 44.01270 | 28.21326 | 35064 ft | 509 kts | 127° |
| 2026-05-07 23:42 | 43.97115 | 28.29303 | 35068 ft | 509 kts | 127° |
| 2026-05-07 23:43 | 43.92966 | 28.37239 | 35070 ft | 510 kts | 127° |
| 2026-05-07 23:43 | 43.88788 | 28.45211 | 35069 ft | 510 kts | 127° |
| 2026-05-07 23:44 | 43.84629 | 28.53073 | 35073 ft | 511 kts | 126° |
| 2026-05-07 23:44 | 43.80430 | 28.61023 | 35074 ft | 510 kts | 126° |
| 2026-05-07 23:45 | 43.76271 | 28.68921 | 35076 ft | 510 kts | 127° |
| 2026-05-07 23:45 | 43.72107 | 28.76824 | 35081 ft | 510 kts | 127° |
| 2026-05-07 23:46 | 43.67910 | 28.84765 | 35079 ft | 510 kts | 126° |
| 2026-05-07 23:46 | 43.63797 | 28.92622 | 35081 ft | 509 kts | 126° |
| 2026-05-07 23:47 | 43.59642 | 29.00547 | 35085 ft | 508 kts | 126° |
| 2026-05-07 23:47 | 43.55515 | 29.08403 | 35085 ft | 509 kts | 126° |
| 2026-05-07 23:48 | 43.51349 | 29.16311 | 35083 ft | 510 kts | 126° |
| 2026-05-07 23:48 | 43.47190 | 29.24180 | 35086 ft | 512 kts | 126° |
| 2026-05-07 23:49 | 43.42995 | 29.32093 | 35083 ft | 512 kts | 126° |
| 2026-05-07 23:49 | 43.38806 | 29.39978 | 35083 ft | 513 kts | 126° |
| 2026-05-07 23:50 | 43.34605 | 29.47866 | 35085 ft | 513 kts | 126° |
| 2026-05-07 23:50 | 43.30394 | 29.55749 | 35092 ft | 514 kts | 126° |
| 2026-05-07 23:51 | 43.26155 | 29.63664 | 35098 ft | 513 kts | 125° |
| 2026-05-07 23:51 | 43.21948 | 29.71517 | 35091 ft | 514 kts | 126° |
| 2026-05-07 23:52 | 43.17713 | 29.79407 | 35089 ft | 515 kts | 126° |
| 2026-05-07 23:52 | 43.13476 | 29.87265 | 35086 ft | 516 kts | 126° |
| 2026-05-07 23:53 | 43.09198 | 29.95169 | 35087 ft | 516 kts | 126° |
| 2026-05-07 23:53 | 43.04926 | 30.03040 | 35082 ft | 517 kts | 126° |
| 2026-05-07 23:54 | 43.00656 | 30.10888 | 35083 ft | 517 kts | 126° |
| 2026-05-07 23:54 | 42.96365 | 30.18753 | 35083 ft | 516 kts | 126° |
| 2026-05-07 23:55 | 42.92066 | 30.26612 | 35084 ft | 517 kts | 125° |
| 2026-05-07 23:55 | 42.87772 | 30.34422 | 35083 ft | 517 kts | 126° |
| 2026-05-07 23:56 | 42.83426 | 30.42284 | 35083 ft | 518 kts | 125° |
| 2026-05-07 23:56 | 42.79189 | 30.50139 | 35087 ft | 518 kts | 121° |
| 2026-05-07 23:57 | 42.75697 | 30.58661 | 35098 ft | 516 kts | 112° |
| 2026-05-07 23:57 | 42.73276 | 30.67840 | 35091 ft | 514 kts | 102° |
| 2026-05-07 23:58 | 42.71961 | 30.77307 | 35103 ft | 512 kts | 95° |
| 2026-05-07 23:58 | 42.71025 | 30.86883 | 35097 ft | 512 kts | 95° |
| 2026-05-07 23:59 | 42.70071 | 30.96502 | 35097 ft | 512 kts | 95° |
| 2026-05-07 23:59 | 42.69096 | 31.06011 | 35102 ft | 512 kts | 95° |
| 2026-05-08 00:00 | 42.68099 | 31.15567 | 35103 ft | 512 kts | 95° |
| 2026-05-08 00:00 | 42.67093 | 31.25144 | 35103 ft | 512 kts | 95° |
| 2026-05-08 00:01 | 42.66079 | 31.34704 | 35103 ft | 512 kts | 94° |
| 2026-05-08 00:01 | 42.65058 | 31.44252 | 35110 ft | 512 kts | 95° |
| 2026-05-08 00:02 | 42.64028 | 31.53809 | 35111 ft | 511 kts | 95° |
| 2026-05-08 00:02 | 42.62996 | 31.63312 | 35117 ft | 511 kts | 95° |
| 2026-05-08 00:03 | 42.61960 | 31.72793 | 35118 ft | 510 kts | 95° |
| 2026-05-08 00:03 | 42.60912 | 31.82301 | 35119 ft | 510 kts | 95° |
| 2026-05-08 00:04 | 42.59858 | 31.91805 | 35121 ft | 509 kts | 95° |
| 2026-05-08 00:04 | 42.58797 | 32.01264 | 35120 ft | 509 kts | 95° |
| 2026-05-08 00:05 | 42.57737 | 32.10740 | 35120 ft | 509 kts | 95° |
| 2026-05-08 00:05 | 42.56652 | 32.20204 | 35122 ft | 509 kts | 95° |
| 2026-05-08 00:06 | 42.55566 | 32.29628 | 35117 ft | 509 kts | 95° |
| 2026-05-08 00:06 | 42.54468 | 32.39086 | 35123 ft | 508 kts | 95° |
| 2026-05-08 00:07 | 42.53361 | 32.48560 | 35122 ft | 508 kts | 95° |
| 2026-05-08 00:07 | 42.52254 | 32.57981 | 35117 ft | 508 kts | 95° |
| 2026-05-08 00:08 | 42.51142 | 32.67374 | 35113 ft | 508 kts | 95° |
| 2026-05-08 00:08 | 42.50020 | 32.76799 | 35110 ft | 507 kts | 95° |
| 2026-05-08 00:09 | 42.48889 | 32.86222 | 35109 ft | 507 kts | 95° |
| 2026-05-08 00:09 | 42.47751 | 32.95650 | 35110 ft | 507 kts | 95° |
| 2026-05-08 00:10 | 42.46608 | 33.05044 | 35111 ft | 507 kts | 95° |
| 2026-05-08 00:10 | 42.45458 | 33.14414 | 35112 ft | 507 kts | 95° |
| 2026-05-08 00:11 | 42.44301 | 33.23758 | 35108 ft | 507 kts | 95° |
| 2026-05-08 00:11 | 42.43125 | 33.33186 | 35112 ft | 506 kts | 95° |
| 2026-05-08 00:12 | 42.41953 | 33.42518 | 35113 ft | 507 kts | 95° |
| 2026-05-08 00:12 | 42.40762 | 33.51926 | 35113 ft | 507 kts | 95° |
| 2026-05-08 00:13 | 42.39569 | 33.61304 | 35113 ft | 506 kts | 95° |
| 2026-05-08 00:13 | 42.38375 | 33.70644 | 35115 ft | 506 kts | 96° |
| 2026-05-08 00:14 | 42.37175 | 33.79991 | 35114 ft | 507 kts | 96° |
| 2026-05-08 00:14 | 42.35957 | 33.89373 | 35118 ft | 507 kts | 96° |
| 2026-05-08 00:15 | 42.34745 | 33.98682 | 35118 ft | 507 kts | 96° |
| 2026-05-08 00:15 | 42.33514 | 34.08073 | 35122 ft | 507 kts | 96° |
| 2026-05-08 00:16 | 42.32278 | 34.17454 | 35129 ft | 506 kts | 96° |
| 2026-05-08 00:16 | 42.31044 | 34.26764 | 35120 ft | 505 kts | 96° |
| 2026-05-08 00:17 | 42.29796 | 34.36102 | 35124 ft | 505 kts | 96° |
| 2026-05-08 00:17 | 42.28544 | 34.45406 | 35127 ft | 504 kts | 96° |
| 2026-05-08 00:18 | 42.27293 | 34.54642 | 35127 ft | 504 kts | 96° |
| 2026-05-08 00:18 | 42.26020 | 34.63975 | 35119 ft | 504 kts | 96° |
| 2026-05-08 00:19 | 42.24749 | 34.73260 | 35124 ft | 504 kts | 97° |
| 2026-05-08 00:19 | 42.23473 | 34.82499 | 35120 ft | 503 kts | 97° |
| 2026-05-08 00:20 | 42.22184 | 34.91752 | 35114 ft | 504 kts | 97° |
| 2026-05-08 00:20 | 42.20889 | 35.00999 | 35130 ft | 504 kts | 97° |
| 2026-05-08 00:21 | 42.19586 | 35.10223 | 35122 ft | 502 kts | 97° |
| 2026-05-08 00:21 | 42.18272 | 35.19490 | 35136 ft | 502 kts | 97° |
| 2026-05-08 00:22 | 42.16963 | 35.28666 | 35138 ft | 502 kts | 97° |
| 2026-05-08 00:22 | 42.15636 | 35.37905 | 35144 ft | 501 kts | 97° |
| 2026-05-08 00:23 | 42.14315 | 35.47056 | 35127 ft | 499 kts | 97° |
| 2026-05-08 00:23 | 42.12995 | 35.56174 | 35139 ft | 499 kts | 98° |
| 2026-05-08 00:24 | 42.11660 | 35.65319 | 35138 ft | 498 kts | 98° |
| 2026-05-08 00:24 | 42.10329 | 35.74424 | 35130 ft | 497 kts | 98° |
| 2026-05-08 00:25 | 42.08986 | 35.83548 | 35117 ft | 497 kts | 98° |
| 2026-05-08 00:25 | 42.07636 | 35.92655 | 35098 ft | 496 kts | 98° |
| 2026-05-08 00:26 | 42.06287 | 36.01707 | 35114 ft | 495 kts | 99° |
| 2026-05-08 00:26 | 42.04923 | 36.10787 | 35127 ft | 495 kts | 99° |
| 2026-05-08 00:27 | 42.03554 | 36.19846 | 35116 ft | 495 kts | 98° |
| 2026-05-08 00:27 | 42.02186 | 36.28869 | 35130 ft | 496 kts | 98° |
| 2026-05-08 00:28 | 42.00803 | 36.37938 | 35122 ft | 496 kts | 98° |
| 2026-05-08 00:28 | 41.99412 | 36.47008 | 35130 ft | 497 kts | 99° |
| 2026-05-08 00:29 | 41.98007 | 36.56107 | 35128 ft | 497 kts | 98° |
| 2026-05-08 00:29 | 41.96596 | 36.65190 | 35135 ft | 497 kts | 99° |
| 2026-05-08 00:30 | 41.95192 | 36.74213 | 35140 ft | 497 kts | 99° |
| 2026-05-08 00:30 | 41.93769 | 36.83294 | 35138 ft | 496 kts | 99° |
| 2026-05-08 00:31 | 41.92343 | 36.92320 | 35150 ft | 497 kts | 99° |
| 2026-05-08 00:31 | 41.90797 | 37.01379 | 35158 ft | 499 kts | 103° |
| 2026-05-08 00:32 | 41.88620 | 37.10153 | 35155 ft | 502 kts | 109° |
| 2026-05-08 00:32 | 41.85897 | 37.18778 | 35150 ft | 502 kts | 110° |
| 2026-05-08 00:33 | 41.83170 | 37.27363 | 35158 ft | 502 kts | 110° |
| 2026-05-08 00:33 | 41.80439 | 37.35989 | 35160 ft | 501 kts | 110° |
| 2026-05-08 00:34 | 41.77718 | 37.44578 | 35316 ft | 502 kts | 110° |
| 2026-05-08 00:34 | 41.74997 | 37.53152 | 35185 ft | 500 kts | 110° |
| 2026-05-08 00:35 | 41.72275 | 37.61700 | 35165 ft | 499 kts | 110° |
| 2026-05-08 00:35 | 41.69545 | 37.70235 | 35150 ft | 500 kts | 111° |
| 2026-05-08 00:36 | 41.66820 | 37.78717 | 35153 ft | 500 kts | 111° |
| 2026-05-08 00:36 | 41.64063 | 37.87274 | 35162 ft | 501 kts | 111° |
| 2026-05-08 00:37 | 41.61301 | 37.95818 | 35131 ft | 501 kts | 111° |
| 2026-05-08 00:38 | 41.57171 | 38.08558 | 35130 ft | 501 kts | 111° |
| 2026-05-08 00:38 | 41.54385 | 38.17119 | 35156 ft | 501 kts | 111° |
| 2026-05-08 00:39 | 41.51618 | 38.25594 | 35145 ft | 501 kts | 111° |
| 2026-05-08 00:39 | 41.48839 | 38.34081 | 35153 ft | 501 kts | 111° |
| 2026-05-08 00:40 | 41.46045 | 38.42585 | 35131 ft | 502 kts | 111° |
| 2026-05-08 00:40 | 41.43238 | 38.51103 | 35155 ft | 502 kts | 111° |
| 2026-05-08 00:41 | 41.40427 | 38.59613 | 35150 ft | 502 kts | 111° |
| 2026-05-08 00:41 | 41.37619 | 38.68093 | 35161 ft | 503 kts | 112° |
| 2026-05-08 00:42 | 41.34786 | 38.76635 | 35149 ft | 503 kts | 111° |
| 2026-05-08 00:42 | 41.31978 | 38.85147 | 35157 ft | 503 kts | 111° |
| 2026-05-08 00:43 | 41.29205 | 38.93650 | 35160 ft | 504 kts | 111° |
| 2026-05-08 00:43 | 41.26404 | 39.02198 | 35158 ft | 505 kts | 111° |
| 2026-05-08 00:44 | 41.23602 | 39.10715 | 35164 ft | 505 kts | 111° |
| 2026-05-08 00:44 | 41.20761 | 39.19269 | 35153 ft | 506 kts | 112° |
| 2026-05-08 00:45 | 41.17808 | 39.27730 | 35160 ft | 506 kts | 113° |
| 2026-05-08 00:45 | 41.14838 | 39.36173 | 35151 ft | 506 kts | 113° |
| 2026-05-08 00:46 | 41.11887 | 39.44577 | 35146 ft | 506 kts | 113° |
| 2026-05-08 00:46 | 41.08906 | 39.53057 | 35146 ft | 506 kts | 113° |
| 2026-05-08 00:47 | 41.05937 | 39.61476 | 35162 ft | 507 kts | 113° |
| 2026-05-08 00:47 | 41.03057 | 39.69959 | 35157 ft | 507 kts | 110° |
| 2026-05-08 00:48 | 41.00868 | 39.78849 | 35153 ft | 505 kts | 103° |
| 2026-05-08 00:48 | 40.99552 | 39.87914 | 35162 ft | 504 kts | 95° |
| 2026-05-08 00:49 | 40.99070 | 39.97094 | 35160 ft | 501 kts | 90° |
| 2026-05-08 00:49 | 40.98877 | 40.06354 | 35161 ft | 502 kts | 90° |
| 2026-05-08 00:50 | 40.98669 | 40.15533 | 35159 ft | 502 kts | 90° |
| 2026-05-08 00:50 | 40.98436 | 40.24749 | 35172 ft | 503 kts | 90° |
| 2026-05-08 00:51 | 40.98187 | 40.33950 | 35164 ft | 502 kts | 90° |
| 2026-05-08 00:51 | 40.97927 | 40.43165 | 35177 ft | 502 kts | 90° |
| 2026-05-08 00:52 | 40.97659 | 40.52432 | 35194 ft | 502 kts | 90° |
| 2026-05-08 00:52 | 40.97384 | 40.61628 | 35192 ft | 502 kts | 91° |
| 2026-05-08 00:53 | 40.97101 | 40.70849 | 35194 ft | 502 kts | 91° |
| 2026-05-08 00:53 | 40.96810 | 40.80063 | 35202 ft | 503 kts | 91° |
| 2026-05-08 00:54 | 40.96509 | 40.89314 | 35204 ft | 503 kts | 91° |
| 2026-05-08 00:54 | 40.96210 | 40.98544 | 35210 ft | 503 kts | 91° |
| 2026-05-08 00:55 | 40.95903 | 41.07785 | 35218 ft | 503 kts | 92° |
| 2026-05-08 00:55 | 40.95586 | 41.16987 | 35222 ft | 503 kts | 92° |
| 2026-05-08 00:56 | 40.95259 | 41.26183 | 35221 ft | 503 kts | 92° |
| 2026-05-08 00:56 | 40.94924 | 41.35418 | 35218 ft | 503 kts | 91° |
| 2026-05-08 00:57 | 40.94583 | 41.44665 | 35220 ft | 504 kts | 92° |
| 2026-05-08 00:57 | 40.94235 | 41.53888 | 35218 ft | 506 kts | 92° |
| 2026-05-08 00:58 | 40.93876 | 41.63177 | 35229 ft | 505 kts | 92° |
| 2026-05-08 00:58 | 40.93512 | 41.72410 | 35232 ft | 505 kts | 92° |
| 2026-05-08 00:59 | 40.93139 | 41.81709 | 35241 ft | 505 kts | 93° |
| 2026-05-08 00:59 | 40.92760 | 41.90961 | 35233 ft | 504 kts | 93° |
| 2026-05-08 01:00 | 40.92374 | 42.00163 | 35214 ft | 504 kts | 93° |
| 2026-05-08 01:00 | 40.91981 | 42.09403 | 35194 ft | 504 kts | 93° |
| 2026-05-08 01:01 | 40.91577 | 42.18700 | 35190 ft | 506 kts | 93° |
| 2026-05-08 01:01 | 40.91167 | 42.27954 | 35192 ft | 507 kts | 93° |
| 2026-05-08 01:02 | 40.90750 | 42.37224 | 35187 ft | 507 kts | 93° |
| 2026-05-08 01:02 | 40.90323 | 42.46516 | 35193 ft | 507 kts | 93° |
| 2026-05-08 01:03 | 40.89887 | 42.55809 | 35190 ft | 508 kts | 94° |
| 2026-05-08 01:03 | 40.89416 | 42.65055 | 35193 ft | 508 kts | 94° |
| 2026-05-08 01:04 | 40.88950 | 42.74351 | 35193 ft | 508 kts | 94° |
| 2026-05-08 01:04 | 40.88489 | 42.83667 | 35195 ft | 509 kts | 94° |
| 2026-05-08 01:05 | 40.88024 | 42.92973 | 35196 ft | 509 kts | 94° |
| 2026-05-08 01:05 | 40.87552 | 43.02270 | 35197 ft | 509 kts | 95° |
| 2026-05-08 01:06 | 40.87072 | 43.11610 | 35204 ft | 510 kts | 95° |
| 2026-05-08 01:06 | 40.86581 | 43.20990 | 35208 ft | 511 kts | 95° |
| 2026-05-08 01:07 | 40.86089 | 43.30275 | 35215 ft | 511 kts | 95° |
| 2026-05-08 01:07 | 40.85584 | 43.39665 | 35204 ft | 511 kts | 95° |
| 2026-05-08 01:08 | 40.85076 | 43.48994 | 35197 ft | 511 kts | 95° |
| 2026-05-08 01:08 | 40.84558 | 43.58374 | 35195 ft | 512 kts | 95° |
| 2026-05-08 01:09 | 40.84031 | 43.67754 | 35204 ft | 512 kts | 96° |
| 2026-05-08 01:09 | 40.83654 | 43.77137 | 35200 ft | 513 kts | 94° |
| 2026-05-08 01:10 | 40.83373 | 43.86555 | 35198 ft | 514 kts | 94° |
| 2026-05-08 01:10 | 40.83077 | 43.95921 | 35192 ft | 514 kts | 94° |
| 2026-05-08 01:11 | 40.82760 | 44.05383 | 35197 ft | 514 kts | 94° |
| 2026-05-08 01:11 | 40.82431 | 44.14816 | 35192 ft | 515 kts | 94° |
| 2026-05-08 01:12 | 40.82094 | 44.24200 | 35179 ft | 515 kts | 95° |
| 2026-05-08 01:12 | 40.81746 | 44.33680 | 35180 ft | 516 kts | 95° |
| 2026-05-08 01:13 | 40.81392 | 44.43125 | 35170 ft | 516 kts | 95° |
| 2026-05-08 01:13 | 40.81033 | 44.52531 | 35162 ft | 517 kts | 95° |
| 2026-05-08 01:14 | 40.80661 | 44.62043 | 35163 ft | 518 kts | 95° |
| 2026-05-08 01:14 | 40.80283 | 44.71560 | 35157 ft | 519 kts | 96° |
| 2026-05-08 01:15 | 40.79899 | 44.81043 | 35157 ft | 520 kts | 96° |
| 2026-05-08 01:15 | 40.79504 | 44.90567 | 35160 ft | 520 kts | 96° |
| 2026-05-08 01:16 | 40.79102 | 45.00050 | 35164 ft | 520 kts | 96° |
| 2026-05-08 01:16 | 40.78693 | 45.09555 | 35168 ft | 520 kts | 96° |
| 2026-05-08 01:17 | 40.78274 | 45.19125 | 35164 ft | 521 kts | 96° |
| 2026-05-08 01:17 | 40.77849 | 45.28625 | 35162 ft | 521 kts | 96° |
| 2026-05-08 01:18 | 40.77415 | 45.38169 | 35167 ft | 521 kts | 96° |
| 2026-05-08 01:18 | 40.77126 | 45.47714 | 35173 ft | 525 kts | 92° |
| 2026-05-08 01:19 | 40.77555 | 45.57321 | 35174 ft | 529 kts | 85° |
| 2026-05-08 01:19 | 40.78542 | 45.66986 | 35172 ft | 531 kts | 85° |
| 2026-05-08 01:20 | 40.79554 | 45.76564 | 35175 ft | 530 kts | 85° |
| 2026-05-08 01:20 | 40.80551 | 45.86206 | 35174 ft | 531 kts | 85° |
| 2026-05-08 01:21 | 40.81533 | 45.95872 | 35164 ft | 531 kts | 85° |
| 2026-05-08 01:21 | 40.82502 | 46.05530 | 35156 ft | 532 kts | 86° |
| 2026-05-08 01:22 | 40.83463 | 46.15199 | 35148 ft | 533 kts | 85° |
| 2026-05-08 01:22 | 40.84421 | 46.24906 | 35149 ft | 534 kts | 85° |
| 2026-05-08 01:23 | 40.85377 | 46.34662 | 35142 ft | 534 kts | 85° |
| 2026-05-08 01:23 | 40.86317 | 46.44333 | 35146 ft | 535 kts | 86° |
| 2026-05-08 01:24 | 40.87254 | 46.54086 | 35135 ft | 535 kts | 86° |
| 2026-05-08 01:24 | 40.88186 | 46.63826 | 35138 ft | 535 kts | 86° |
| 2026-05-08 01:25 | 40.89104 | 46.73616 | 35132 ft | 535 kts | 88° |
| 2026-05-08 01:25 | 40.89537 | 46.83403 | 35131 ft | 531 kts | 95° |
| 2026-05-08 01:26 | 40.89146 | 46.93060 | 35133 ft | 528 kts | 100° |
| 2026-05-08 01:26 | 40.88416 | 47.02742 | 35131 ft | 529 kts | 101° |
| 2026-05-08 01:27 | 40.87689 | 47.12352 | 35131 ft | 530 kts | 100° |
| 2026-05-08 01:27 | 40.86959 | 47.22100 | 35139 ft | 531 kts | 100° |
| 2026-05-08 01:28 | 40.86234 | 47.31765 | 35146 ft | 531 kts | 100° |
| 2026-05-08 01:28 | 40.85505 | 47.41438 | 35145 ft | 531 kts | 100° |
| 2026-05-08 01:29 | 40.84756 | 47.51178 | 35155 ft | 532 kts | 100° |
| 2026-05-08 01:29 | 40.84122 | 47.60892 | 35154 ft | 532 kts | 99° |
| 2026-05-08 01:30 | 40.83539 | 47.70676 | 35152 ft | 533 kts | 100° |
| 2026-05-08 01:30 | 40.82944 | 47.80409 | 35154 ft | 533 kts | 100° |
| 2026-05-08 01:31 | 40.82335 | 47.90104 | 35005 ft | 532 kts | 100° |
| 2026-05-08 01:31 | 40.81706 | 47.99906 | 35124 ft | 534 kts | 100° |
| 2026-05-08 01:32 | 40.81075 | 48.09610 | 35161 ft | 536 kts | 100° |
| 2026-05-08 01:32 | 40.80428 | 48.19429 | 35189 ft | 536 kts | 100° |
| 2026-05-08 01:33 | 40.79774 | 48.29250 | 35180 ft | 536 kts | 100° |
| 2026-05-08 01:33 | 40.79116 | 48.38994 | 35185 ft | 537 kts | 100° |
| 2026-05-08 01:34 | 40.78442 | 48.48848 | 35174 ft | 537 kts | 100° |
| 2026-05-08 01:34 | 40.77763 | 48.58659 | 35175 ft | 537 kts | 100° |
| 2026-05-08 01:35 | 40.77078 | 48.68450 | 35166 ft | 538 kts | 101° |
| 2026-05-08 01:35 | 40.76385 | 48.78265 | 35167 ft | 538 kts | 101° |
| 2026-05-08 01:36 | 40.75684 | 48.88069 | 35164 ft | 538 kts | 101° |
| 2026-05-08 01:36 | 40.74969 | 48.97912 | 35157 ft | 539 kts | 101° |
| 2026-05-08 01:37 | 40.74245 | 49.07778 | 35162 ft | 539 kts | 101° |
| 2026-05-08 01:37 | 40.73516 | 49.17598 | 35147 ft | 539 kts | 101° |
| 2026-05-08 01:38 | 40.72653 | 49.27396 | 35142 ft | 536 kts | 104° |
| 2026-05-08 01:38 | 40.71509 | 49.37085 | 35127 ft | 537 kts | 104° |
| 2026-05-08 01:39 | 40.70345 | 49.46782 | 35122 ft | 537 kts | 104° |
| 2026-05-08 01:39 | 40.69175 | 49.56506 | 35117 ft | 536 kts | 104° |
| 2026-05-08 01:40 | 40.67994 | 49.66199 | 35110 ft | 536 kts | 105° |
| 2026-05-08 01:40 | 40.66822 | 49.75844 | 35116 ft | 536 kts | 105° |
| 2026-05-08 01:41 | 40.65635 | 49.85542 | 35118 ft | 536 kts | 105° |
| 2026-05-08 01:41 | 40.64443 | 49.95189 | 35106 ft | 536 kts | 105° |
| 2026-05-08 01:42 | 40.63234 | 50.04892 | 35102 ft | 536 kts | 105° |
| 2026-05-08 01:42 | 40.62013 | 50.14621 | 35101 ft | 537 kts | 105° |
| 2026-05-08 01:43 | 40.60788 | 50.24318 | 35102 ft | 537 kts | 105° |
| 2026-05-08 01:43 | 40.59559 | 50.33982 | 35111 ft | 538 kts | 105° |
| 2026-05-08 01:44 | 40.58317 | 50.43698 | 35117 ft | 537 kts | 105° |
| 2026-05-08 01:44 | 40.57069 | 50.53371 | 35108 ft | 538 kts | 105° |
| 2026-05-08 01:45 | 40.55816 | 50.63018 | 35115 ft | 538 kts | 105° |
| 2026-05-08 01:45 | 40.54553 | 50.72729 | 35106 ft | 538 kts | 105° |
| 2026-05-08 01:46 | 40.53289 | 50.82385 | 35102 ft | 538 kts | 105° |
| 2026-05-08 01:46 | 40.52029 | 50.92069 | 35110 ft | 539 kts | 104° |
| 2026-05-08 01:47 | 40.51097 | 51.01830 | 35111 ft | 540 kts | 102° |
| 2026-05-08 01:47 | 40.50220 | 51.11606 | 35110 ft | 541 kts | 102° |
| 2026-05-08 01:48 | 40.48873 | 51.26328 | 35103 ft | 542 kts | 102° |
| 2026-05-08 01:48 | 40.47963 | 51.36111 | 35101 ft | 542 kts | 102° |
| 2026-05-08 01:49 | 40.47033 | 51.45963 | 35100 ft | 541 kts | 103° |
| 2026-05-08 01:49 | 40.45649 | 51.55601 | 35093 ft | 537 kts | 109° |
| 2026-05-08 01:50 | 40.43906 | 51.65083 | 35097 ft | 537 kts | 110° |
| 2026-05-08 01:50 | 40.42141 | 51.74637 | 35097 ft | 537 kts | 109° |
| 2026-05-08 01:51 | 40.40384 | 51.84152 | 35089 ft | 538 kts | 109° |
| 2026-05-08 01:51 | 40.38623 | 51.93658 | 35087 ft | 539 kts | 110° |
| 2026-05-08 01:52 | 40.36852 | 52.03172 | 35105 ft | 539 kts | 109° |
| 2026-05-08 01:52 | 40.35065 | 52.12717 | 35100 ft | 539 kts | 110° |
| 2026-05-08 01:53 | 40.33269 | 52.22275 | 35103 ft | 540 kts | 110° |
| 2026-05-08 01:53 | 40.31470 | 52.31784 | 35101 ft | 541 kts | 110° |
| 2026-05-08 01:54 | 40.29649 | 52.41380 | 35094 ft | 541 kts | 110° |
| 2026-05-08 01:54 | 40.27827 | 52.50933 | 35089 ft | 542 kts | 110° |
| 2026-05-08 01:55 | 40.25987 | 52.60523 | 35093 ft | 543 kts | 110° |
| 2026-05-08 01:55 | 40.24166 | 52.70008 | 35083 ft | 542 kts | 110° |
| 2026-05-08 01:56 | 40.22320 | 52.79610 | 35082 ft | 543 kts | 110° |
| 2026-05-08 01:56 | 40.20472 | 52.89158 | 35070 ft | 544 kts | 110° |
| 2026-05-08 01:57 | 40.18601 | 52.98760 | 35080 ft | 544 kts | 111° |
| 2026-05-08 01:57 | 40.16721 | 53.08357 | 35093 ft | 545 kts | 111° |
| 2026-05-08 01:58 | 40.14837 | 53.17924 | 35079 ft | 547 kts | 111° |
| 2026-05-08 01:58 | 40.12934 | 53.27552 | 35090 ft | 548 kts | 111° |
| 2026-05-08 01:59 | 40.11020 | 53.37188 | 35083 ft | 549 kts | 111° |
| 2026-05-08 01:59 | 40.09083 | 53.46897 | 35079 ft | 551 kts | 111° |
| 2026-05-08 02:00 | 40.07146 | 53.56553 | 35073 ft | 551 kts | 111° |
| 2026-05-08 02:00 | 40.05197 | 53.66224 | 35084 ft | 552 kts | 111° |
| 2026-05-08 02:01 | 40.03248 | 53.75897 | 35073 ft | 553 kts | 112° |
| 2026-05-08 02:01 | 40.01277 | 53.85606 | 35074 ft | 556 kts | 112° |
| 2026-05-08 02:02 | 39.99289 | 53.95360 | 35086 ft | 555 kts | 112° |
| 2026-05-08 02:02 | 39.97295 | 54.05072 | 35088 ft | 555 kts | 112° |
| 2026-05-08 02:03 | 39.95289 | 54.14763 | 35092 ft | 557 kts | 112° |
| 2026-05-08 02:03 | 39.93267 | 54.24517 | 35090 ft | 558 kts | 112° |
| 2026-05-08 02:04 | 39.91243 | 54.34248 | 35091 ft | 558 kts | 112° |
| 2026-05-08 02:04 | 39.89190 | 54.44009 | 35102 ft | 560 kts | 112° |
| 2026-05-08 02:05 | 39.87109 | 54.53750 | 35097 ft | 559 kts | 112° |
| 2026-05-08 02:05 | 39.85028 | 54.63486 | 35099 ft | 560 kts | 112° |
| 2026-05-08 02:06 | 39.83993 | 54.68365 | 35276 ft | 561 kts | 113° |
| 2026-05-08 02:06 | 39.82962 | 54.73232 | 35164 ft | 559 kts | 112° |
| 2026-05-08 02:06 | 39.80878 | 54.82992 | 35102 ft | 559 kts | 113° |
| 2026-05-08 02:07 | 39.78784 | 54.92754 | 35088 ft | 561 kts | 113° |
| 2026-05-08 02:07 | 39.76691 | 55.02500 | 35086 ft | 562 kts | 113° |
| 2026-05-08 02:08 | 39.74585 | 55.12249 | 35085 ft | 564 kts | 112° |
| 2026-05-08 02:08 | 39.72459 | 55.22098 | 35079 ft | 563 kts | 113° |
| 2026-05-08 02:09 | 39.70343 | 55.31828 | 35077 ft | 563 kts | 113° |
| 2026-05-08 02:09 | 39.68196 | 55.41599 | 35077 ft | 564 kts | 113° |
| 2026-05-08 02:10 | 39.66014 | 55.51446 | 35074 ft | 566 kts | 112° |
| 2026-05-08 02:10 | 39.63860 | 55.61186 | 35072 ft | 564 kts | 113° |
| 2026-05-08 02:11 | 39.61690 | 55.70966 | 35073 ft | 565 kts | 114° |
| 2026-05-08 02:11 | 39.60599 | 55.75879 | 34929 ft | 564 kts | 113° |
| 2026-05-08 02:11 | 39.59512 | 55.80752 | 34998 ft | 565 kts | 114° |
| 2026-05-08 02:12 | 39.57316 | 55.90533 | 35053 ft | 567 kts | 114° |
| 2026-05-08 02:12 | 39.55121 | 56.00321 | 35065 ft | 569 kts | 113° |
| 2026-05-08 02:13 | 39.52903 | 56.10234 | 35062 ft | 569 kts | 113° |
| 2026-05-08 02:13 | 39.50693 | 56.20057 | 35064 ft | 569 kts | 113° |
| 2026-05-08 02:14 | 39.48475 | 56.29875 | 35060 ft | 570 kts | 113° |
| 2026-05-08 02:14 | 39.46241 | 56.39727 | 35063 ft | 569 kts | 113° |
| 2026-05-08 02:15 | 39.44015 | 56.49472 | 35061 ft | 569 kts | 113° |
| 2026-05-08 02:15 | 39.41755 | 56.59340 | 35055 ft | 571 kts | 112° |
| 2026-05-08 02:16 | 39.39502 | 56.69177 | 35051 ft | 570 kts | 114° |
| 2026-05-08 02:16 | 39.37255 | 56.78940 | 35055 ft | 570 kts | 114° |
| 2026-05-08 02:17 | 39.34860 | 56.88711 | 35057 ft | 567 kts | 116° |
| 2026-05-08 02:17 | 39.32352 | 56.98349 | 35058 ft | 567 kts | 116° |
| 2026-05-08 02:18 | 39.29841 | 57.08010 | 35052 ft | 569 kts | 115° |
| 2026-05-08 02:18 | 39.27330 | 57.17683 | 35050 ft | 570 kts | 115° |
| 2026-05-08 02:19 | 39.24822 | 57.27351 | 35044 ft | 569 kts | 115° |
| 2026-05-08 02:19 | 39.22293 | 57.37072 | 35048 ft | 569 kts | 115° |
| 2026-05-08 02:20 | 39.19763 | 57.46738 | 35042 ft | 570 kts | 115° |
| 2026-05-08 02:20 | 39.17223 | 57.56406 | 35047 ft | 572 kts | 115° |
| 2026-05-08 02:21 | 39.14667 | 57.66107 | 35043 ft | 572 kts | 115° |
| 2026-05-08 02:21 | 39.12105 | 57.75827 | 35049 ft | 573 kts | 115° |
| 2026-05-08 02:22 | 39.09542 | 57.85519 | 35052 ft | 571 kts | 115° |
| 2026-05-08 02:22 | 39.06975 | 57.95133 | 35050 ft | 572 kts | 115° |
| 2026-05-08 02:23 | 39.04386 | 58.04809 | 35054 ft | 571 kts | 115° |
| 2026-05-08 02:23 | 39.01797 | 58.14440 | 35050 ft | 572 kts | 115° |
| 2026-05-08 02:24 | 38.99209 | 58.24044 | 35055 ft | 570 kts | 114° |
| 2026-05-08 02:24 | 38.96588 | 58.33711 | 35056 ft | 571 kts | 114° |
| 2026-05-08 02:25 | 38.93979 | 58.43322 | 35056 ft | 570 kts | 114° |
| 2026-05-08 02:25 | 38.91356 | 58.52937 | 35055 ft | 570 kts | 114° |
| 2026-05-08 02:26 | 38.88630 | 58.62439 | 35046 ft | 566 kts | 118° |
| 2026-05-08 02:26 | 38.85257 | 58.71523 | 35247 ft | 561 kts | 123° |
| 2026-05-08 02:27 | 38.83501 | 58.75962 | 35112 ft | 560 kts | 123° |
| 2026-05-08 02:27 | 38.81729 | 58.80428 | 35059 ft | 559 kts | 123° |
| 2026-05-08 02:27 | 38.78225 | 58.89292 | 35057 ft | 559 kts | 123° |
| 2026-05-08 02:28 | 38.74689 | 58.98251 | 35047 ft | 560 kts | 122° |
| 2026-05-08 02:28 | 38.71195 | 59.07102 | 35047 ft | 560 kts | 122° |
| 2026-05-08 02:29 | 38.67685 | 59.15968 | 35042 ft | 559 kts | 122° |
| 2026-05-08 02:29 | 38.64157 | 59.24841 | 35044 ft | 561 kts | 122° |
| 2026-05-08 02:30 | 38.60618 | 59.33731 | 35031 ft | 560 kts | 122° |
| 2026-05-08 02:30 | 38.57166 | 59.42635 | 35040 ft | 563 kts | 120° |
| 2026-05-08 02:31 | 38.53830 | 59.51693 | 35036 ft | 562 kts | 120° |
| 2026-05-08 02:31 | 38.50486 | 59.60754 | 35033 ft | 562 kts | 120° |
| 2026-05-08 02:32 | 38.47138 | 59.69758 | 35032 ft | 563 kts | 119° |
| 2026-05-08 02:32 | 38.43790 | 59.78753 | 35034 ft | 562 kts | 120° |
| 2026-05-08 02:33 | 38.42120 | 59.83215 | 34904 ft | 562 kts | 120° |
| 2026-05-08 02:33 | 38.40413 | 59.87755 | 34971 ft | 562 kts | 120° |
| 2026-05-08 02:33 | 38.37053 | 59.96684 | 35020 ft | 563 kts | 120° |
| 2026-05-08 02:34 | 38.33654 | 60.05682 | 34976 ft | 563 kts | 119° |
| 2026-05-08 02:34 | 38.31953 | 60.10183 | 35112 ft | 562 kts | 119° |
| 2026-05-08 02:34 | 38.30255 | 60.14666 | 35068 ft | 561 kts | 119° |
| 2026-05-08 02:35 | 38.26863 | 60.23590 | 35042 ft | 563 kts | 119° |
| 2026-05-08 02:35 | 38.23447 | 60.32559 | 35042 ft | 562 kts | 119° |
| 2026-05-08 02:36 | 38.20035 | 60.41497 | 35043 ft | 563 kts | 119° |
| 2026-05-08 02:36 | 38.16624 | 60.50402 | 35039 ft | 562 kts | 118° |
| 2026-05-08 02:37 | 38.13191 | 60.59337 | 35036 ft | 561 kts | 118° |
| 2026-05-08 02:37 | 38.09767 | 60.68229 | 35024 ft | 561 kts | 118° |
| 2026-05-08 02:38 | 38.06337 | 60.77139 | 35030 ft | 561 kts | 119° |
| 2026-05-08 02:38 | 38.02903 | 60.86012 | 35029 ft | 561 kts | 118° |
| 2026-05-08 02:39 | 37.99458 | 60.94886 | 35025 ft | 560 kts | 118° |
| 2026-05-08 02:39 | 37.96022 | 61.03694 | 35028 ft | 560 kts | 118° |
| 2026-05-08 02:40 | 37.92554 | 61.12566 | 35028 ft | 560 kts | 118° |
| 2026-05-08 02:40 | 37.89089 | 61.21408 | 35020 ft | 560 kts | 118° |
| 2026-05-08 02:41 | 37.85612 | 61.30158 | 35024 ft | 559 kts | 118° |
| 2026-05-08 02:41 | 37.82116 | 61.38981 | 35029 ft | 559 kts | 118° |
| 2026-05-08 02:42 | 37.78638 | 61.47784 | 35027 ft | 558 kts | 118° |
| 2026-05-08 02:42 | 37.75180 | 61.56509 | 35029 ft | 558 kts | 118° |
| 2026-05-08 02:43 | 37.71682 | 61.65318 | 35027 ft | 558 kts | 119° |
| 2026-05-08 02:43 | 37.68224 | 61.74036 | 35024 ft | 557 kts | 118° |
| 2026-05-08 02:44 | 37.64345 | 61.82469 | 35018 ft | 552 kts | 129° |
| 2026-05-08 02:44 | 37.59255 | 61.89620 | 35016 ft | 543 kts | 143° |
| 2026-05-08 02:45 | 37.53241 | 61.95128 | 35022 ft | 532 kts | 156° |
| 2026-05-08 02:45 | 37.46659 | 61.99484 | 35023 ft | 530 kts | 159° |
| 2026-05-08 02:46 | 37.40095 | 62.03709 | 35027 ft | 532 kts | 158° |
| 2026-05-08 02:46 | 37.33527 | 62.07980 | 35027 ft | 531 kts | 158° |
| 2026-05-08 02:47 | 37.26972 | 62.12261 | 35027 ft | 531 kts | 158° |
| 2026-05-08 02:47 | 37.20385 | 62.16564 | 35030 ft | 532 kts | 158° |
| 2026-05-08 02:48 | 37.13840 | 62.20832 | 35029 ft | 532 kts | 158° |
| 2026-05-08 02:48 | 37.07234 | 62.25131 | 35031 ft | 532 kts | 158° |
| 2026-05-08 02:49 | 37.00672 | 62.29395 | 35034 ft | 531 kts | 158° |
| 2026-05-08 02:49 | 36.94085 | 62.33666 | 35034 ft | 532 kts | 158° |
| 2026-05-08 02:50 | 36.87499 | 62.37922 | 35031 ft | 533 kts | 158° |
| 2026-05-08 02:50 | 36.80912 | 62.42160 | 35031 ft | 533 kts | 158° |
| 2026-05-08 02:51 | 36.74292 | 62.46417 | 35033 ft | 534 kts | 158° |
| 2026-05-08 02:51 | 36.67679 | 62.50667 | 35035 ft | 533 kts | 158° |
| 2026-05-08 02:52 | 36.61084 | 62.54903 | 35038 ft | 534 kts | 157° |
| 2026-05-08 02:52 | 36.54482 | 62.59134 | 35043 ft | 534 kts | 157° |
| 2026-05-08 02:53 | 36.47852 | 62.63376 | 35048 ft | 534 kts | 157° |
| 2026-05-08 02:53 | 36.41264 | 62.67597 | 35052 ft | 534 kts | 158° |
| 2026-05-08 02:54 | 36.34644 | 62.71846 | 35055 ft | 535 kts | 158° |
| 2026-05-08 02:54 | 36.27994 | 62.76089 | 35067 ft | 534 kts | 158° |
| 2026-05-08 02:55 | 36.18063 | 62.82391 | 35066 ft | 535 kts | 158° |
| 2026-05-08 02:56 | 36.11455 | 62.86573 | 35065 ft | 535 kts | 158° |
| 2026-05-08 02:56 | 36.04796 | 62.90781 | 35061 ft | 536 kts | 158° |
| 2026-05-08 02:57 | 35.98126 | 62.94986 | 35061 ft | 536 kts | 158° |
| 2026-05-08 02:57 | 35.91504 | 62.99150 | 35061 ft | 536 kts | 158° |
| 2026-05-08 02:58 | 35.84848 | 63.03324 | 35064 ft | 536 kts | 158° |
| 2026-05-08 02:58 | 35.78186 | 63.07488 | 35060 ft | 536 kts | 158° |
| 2026-05-08 02:59 | 35.71526 | 63.11659 | 35067 ft | 536 kts | 158° |
| 2026-05-08 02:59 | 35.64898 | 63.16032 | 35076 ft | 540 kts | 152° |
| 2026-05-08 03:00 | 35.58757 | 63.21426 | 35084 ft | 546 kts | 142° |
| 2026-05-08 03:00 | 35.53303 | 63.27931 | 35109 ft | 549 kts | 133° |
| 2026-05-08 03:01 | 35.48561 | 63.35276 | 35128 ft | 551 kts | 128° |
| 2026-05-08 03:01 | 35.43928 | 63.42796 | 35137 ft | 551 kts | 128° |
| 2026-05-08 03:02 | 35.39270 | 63.50259 | 35157 ft | 551 kts | 129° |
| 2026-05-08 03:02 | 35.34586 | 63.57708 | 35168 ft | 552 kts | 129° |
| 2026-05-08 03:03 | 35.29894 | 63.65139 | 35188 ft | 552 kts | 129° |
| 2026-05-08 03:03 | 35.25187 | 63.72623 | 35176 ft | 553 kts | 129° |
| 2026-05-08 03:04 | 35.20496 | 63.80076 | 35200 ft | 553 kts | 129° |
| 2026-05-08 03:04 | 35.15790 | 63.87529 | 35237 ft | 554 kts | 129° |
| 2026-05-08 03:05 | 35.11084 | 63.94960 | 35268 ft | 554 kts | 129° |
| 2026-05-08 03:05 | 35.06341 | 64.02431 | 35282 ft | 555 kts | 129° |
| 2026-05-08 03:06 | 35.01614 | 64.09865 | 35297 ft | 554 kts | 129° |
| 2026-05-08 03:06 | 34.96891 | 64.17271 | 35321 ft | 554 kts | 129° |
| 2026-05-08 03:07 | 34.92128 | 64.24728 | 35367 ft | 555 kts | 129° |
| 2026-05-08 03:07 | 34.87388 | 64.32116 | 35404 ft | 555 kts | 129° |
| 2026-05-08 03:08 | 34.82594 | 64.39536 | 35450 ft | 555 kts | 129° |
| 2026-05-08 03:08 | 34.77825 | 64.46939 | 35467 ft | 555 kts | 129° |
| 2026-05-08 03:09 | 34.73082 | 64.54295 | 35486 ft | 555 kts | 129° |
| 2026-05-08 03:09 | 34.68287 | 64.61732 | 35508 ft | 555 kts | 129° |
| 2026-05-08 03:10 | 34.63516 | 64.69125 | 35527 ft | 555 kts | 129° |
| 2026-05-08 03:10 | 34.58763 | 64.76495 | 35545 ft | 555 kts | 129° |
| 2026-05-08 03:11 | 34.53983 | 64.83865 | 35540 ft | 556 kts | 130° |
| 2026-05-08 03:11 | 34.49175 | 64.91248 | 35543 ft | 556 kts | 130° |
| 2026-05-08 03:12 | 34.44358 | 64.98604 | 35538 ft | 557 kts | 129° |
| 2026-05-08 03:12 | 34.39535 | 65.05962 | 35539 ft | 557 kts | 130° |
| 2026-05-08 03:13 | 34.34711 | 65.13308 | 35550 ft | 557 kts | 129° |
| 2026-05-08 03:13 | 34.29896 | 65.20629 | 35568 ft | 557 kts | 130° |
| 2026-05-08 03:14 | 34.25039 | 65.27994 | 35569 ft | 557 kts | 129° |
| 2026-05-08 03:14 | 34.20216 | 65.35296 | 35567 ft | 557 kts | 129° |
| 2026-05-08 03:15 | 34.15388 | 65.42592 | 35556 ft | 558 kts | 129° |
| 2026-05-08 03:15 | 34.10530 | 65.49922 | 35563 ft | 557 kts | 130° |
| 2026-05-08 03:16 | 34.05658 | 65.57252 | 35560 ft | 558 kts | 130° |
| 2026-05-08 03:16 | 34.00813 | 65.64536 | 35558 ft | 558 kts | 129° |
| 2026-05-08 03:17 | 33.95964 | 65.71844 | 35559 ft | 559 kts | 130° |
| 2026-05-08 03:17 | 33.91083 | 65.79188 | 35556 ft | 559 kts | 130° |
| 2026-05-08 03:18 | 33.86205 | 65.86473 | 35561 ft | 559 kts | 130° |
| 2026-05-08 03:18 | 33.81284 | 65.93774 | 35558 ft | 560 kts | 130° |
| 2026-05-08 03:19 | 33.76393 | 66.01048 | 35558 ft | 559 kts | 130° |
| 2026-05-08 03:19 | 33.71507 | 66.08314 | 35557 ft | 560 kts | 130° |
| 2026-05-08 03:20 | 33.66597 | 66.15610 | 35535 ft | 560 kts | 130° |
| 2026-05-08 03:20 | 33.61682 | 66.22894 | 35521 ft | 560 kts | 130° |
| 2026-05-08 03:21 | 33.56800 | 66.30115 | 35500 ft | 560 kts | 130° |
| 2026-05-08 03:21 | 33.51867 | 66.37402 | 35499 ft | 560 kts | 130° |
| 2026-05-08 03:22 | 33.46934 | 66.44672 | 35505 ft | 561 kts | 129° |
| 2026-05-08 03:22 | 33.41990 | 66.51901 | 35528 ft | 561 kts | 130° |
| 2026-05-08 03:23 | 33.37032 | 66.59126 | 35559 ft | 561 kts | 129° |
| 2026-05-08 03:23 | 33.32084 | 66.66334 | 35579 ft | 562 kts | 130° |
| 2026-05-08 03:24 | 33.27122 | 66.73581 | 35594 ft | 562 kts | 130° |
| 2026-05-08 03:24 | 33.22153 | 66.80811 | 35590 ft | 561 kts | 130° |
| 2026-05-08 03:25 | 33.17202 | 66.87987 | 35590 ft | 562 kts | 130° |
| 2026-05-08 03:25 | 33.12235 | 66.95167 | 35599 ft | 562 kts | 130° |
| 2026-05-08 03:26 | 33.07249 | 67.02359 | 35616 ft | 561 kts | 130° |
| 2026-05-08 03:26 | 33.02279 | 67.09520 | 35615 ft | 561 kts | 130° |
| 2026-05-08 03:27 | 32.97290 | 67.16693 | 35597 ft | 561 kts | 130° |
| 2026-05-08 03:27 | 32.92313 | 67.23830 | 35561 ft | 563 kts | 130° |
| 2026-05-08 03:28 | 32.87260 | 67.31046 | 35535 ft | 564 kts | 130° |
| 2026-05-08 03:28 | 32.82260 | 67.38161 | 35512 ft | 563 kts | 130° |
| 2026-05-08 03:29 | 32.77250 | 67.45303 | 35500 ft | 563 kts | 131° |
| 2026-05-08 03:29 | 32.72060 | 67.52341 | 35474 ft | 562 kts | 132° |
| 2026-05-08 03:30 | 32.64239 | 67.62752 | 35434 ft | 563 kts | 131° |
| 2026-05-08 03:31 | 32.53870 | 67.76680 | 35411 ft | 563 kts | 132° |
| 2026-05-08 03:32 | 32.46241 | 67.87246 | 35395 ft | 562 kts | 130° |
| 2026-05-08 03:32 | 32.41271 | 67.94394 | 35382 ft | 563 kts | 129° |
| 2026-05-08 03:33 | 32.36286 | 68.01549 | 35381 ft | 563 kts | 129° |
| 2026-05-08 03:33 | 32.31268 | 68.08733 | 35383 ft | 564 kts | 129° |
| 2026-05-08 03:34 | 32.26284 | 68.15858 | 35395 ft | 564 kts | 129° |
| 2026-05-08 03:34 | 32.21270 | 68.23003 | 35412 ft | 564 kts | 129° |
| 2026-05-08 03:35 | 32.16247 | 68.30152 | 35414 ft | 565 kts | 129° |
| 2026-05-08 03:35 | 32.11236 | 68.37268 | 35411 ft | 564 kts | 129° |
| 2026-05-08 03:36 | 32.06213 | 68.44383 | 35408 ft | 565 kts | 129° |
| 2026-05-08 03:36 | 32.01173 | 68.51517 | 35394 ft | 565 kts | 129° |
| 2026-05-08 03:37 | 31.96165 | 68.58584 | 35375 ft | 564 kts | 129° |
| 2026-05-08 03:37 | 31.91137 | 68.65672 | 35353 ft | 564 kts | 129° |
| 2026-05-08 03:38 | 31.86076 | 68.72799 | 35341 ft | 565 kts | 130° |
| 2026-05-08 03:38 | 31.81027 | 68.79873 | 35324 ft | 565 kts | 130° |
| 2026-05-08 03:39 | 31.75978 | 68.86943 | 35312 ft | 565 kts | 130° |
| 2026-05-08 03:39 | 31.70902 | 68.94057 | 35295 ft | 566 kts | 130° |
| 2026-05-08 03:40 | 31.65846 | 69.01132 | 35285 ft | 566 kts | 129° |
| 2026-05-08 03:40 | 31.60959 | 69.08351 | 35296 ft | 566 kts | 128° |
| 2026-05-08 03:41 | 31.56116 | 69.15607 | 35280 ft | 566 kts | 127° |
| 2026-05-08 03:41 | 31.51216 | 69.22897 | 35271 ft | 566 kts | 128° |
| 2026-05-08 03:42 | 31.46322 | 69.30140 | 35249 ft | 566 kts | 128° |
| 2026-05-08 03:42 | 31.41448 | 69.37338 | 35231 ft | 565 kts | 127° |
| 2026-05-08 03:43 | 31.36393 | 69.44359 | 35228 ft | 565 kts | 133° |
| 2026-05-08 03:43 | 31.30665 | 69.50706 | 35244 ft | 564 kts | 141° |
| 2026-05-08 03:44 | 31.24588 | 69.56452 | 35264 ft | 564 kts | 142° |
| 2026-05-08 03:44 | 31.18455 | 69.62202 | 35266 ft | 564 kts | 142° |
| 2026-05-08 03:45 | 31.12330 | 69.67983 | 35266 ft | 564 kts | 142° |
| 2026-05-08 03:45 | 31.06217 | 69.73787 | 35267 ft | 565 kts | 142° |
| 2026-05-08 03:46 | 31.00100 | 69.79569 | 35276 ft | 565 kts | 142° |
| 2026-05-08 03:46 | 30.93973 | 69.85333 | 35269 ft | 566 kts | 142° |
| 2026-05-08 03:47 | 30.87824 | 69.91103 | 35259 ft | 566 kts | 142° |
| 2026-05-08 03:47 | 30.81701 | 69.96813 | 35261 ft | 566 kts | 142° |
| 2026-05-08 03:48 | 30.75530 | 70.02573 | 35268 ft | 566 kts | 142° |
| 2026-05-08 03:48 | 30.69373 | 70.08325 | 35231 ft | 567 kts | 142° |
| 2026-05-08 03:49 | 30.63210 | 70.14074 | 35171 ft | 566 kts | 142° |
| 2026-05-08 03:49 | 30.57074 | 70.19789 | 35107 ft | 567 kts | 142° |
| 2026-05-08 03:50 | 30.50928 | 70.25504 | 35041 ft | 566 kts | 142° |
| 2026-05-08 03:50 | 30.44758 | 70.31233 | 35002 ft | 566 kts | 142° |
| 2026-05-08 03:51 | 30.38620 | 70.36921 | 34981 ft | 567 kts | 142° |
| 2026-05-08 03:51 | 30.32446 | 70.42642 | 34953 ft | 567 kts | 142° |
| 2026-05-08 03:52 | 30.26244 | 70.48373 | 34910 ft | 567 kts | 142° |
| 2026-05-08 03:52 | 30.20097 | 70.54063 | 34880 ft | 567 kts | 142° |
| 2026-05-08 03:53 | 30.13977 | 70.59847 | 34849 ft | 567 kts | 141° |
| 2026-05-08 03:53 | 30.07829 | 70.65674 | 34843 ft | 569 kts | 142° |
| 2026-05-08 03:54 | 30.01701 | 70.71497 | 34833 ft | 569 kts | 142° |
| 2026-05-08 03:54 | 29.95601 | 70.77264 | 34820 ft | 568 kts | 142° |
| 2026-05-08 03:55 | 29.89458 | 70.83044 | 34809 ft | 569 kts | 142° |
| 2026-05-08 03:55 | 29.83320 | 70.88776 | 34802 ft | 568 kts | 142° |
| 2026-05-08 03:56 | 29.77130 | 70.94564 | 34781 ft | 569 kts | 142° |
| 2026-05-08 03:56 | 29.71024 | 71.00285 | 34778 ft | 569 kts | 142° |
| 2026-05-08 03:57 | 29.64949 | 71.06200 | 34774 ft | 569 kts | 139° |
| 2026-05-08 03:57 | 29.59035 | 71.12238 | 34775 ft | 569 kts | 139° |
| 2026-05-08 03:58 | 29.53103 | 71.18305 | 34776 ft | 570 kts | 139° |
| 2026-05-08 03:58 | 29.47142 | 71.24384 | 34776 ft | 570 kts | 139° |
| 2026-05-08 03:59 | 29.41186 | 71.30443 | 34778 ft | 570 kts | 139° |
| 2026-05-08 03:59 | 29.35249 | 71.36475 | 34778 ft | 570 kts | 139° |
| 2026-05-08 04:00 | 29.29279 | 71.42529 | 34782 ft | 570 kts | 139° |
| 2026-05-08 04:00 | 29.23355 | 71.48566 | 34780 ft | 571 kts | 139° |
| 2026-05-08 04:01 | 29.17430 | 71.54621 | 34780 ft | 570 kts | 139° |
| 2026-05-08 04:01 | 29.11507 | 71.60665 | 34779 ft | 571 kts | 139° |
| 2026-05-08 04:02 | 29.05573 | 71.66712 | 34777 ft | 571 kts | 139° |
| 2026-05-08 04:02 | 28.99641 | 71.72781 | 34780 ft | 570 kts | 139° |
| 2026-05-08 04:03 | 28.93718 | 71.78809 | 34784 ft | 571 kts | 139° |
| 2026-05-08 04:03 | 28.84802 | 71.87821 | 34790 ft | 571 kts | 139° |
| 2026-05-08 04:04 | 28.78823 | 71.93841 | 34798 ft | 571 kts | 139° |
| 2026-05-08 04:04 | 28.72852 | 71.99863 | 34797 ft | 570 kts | 139° |
| 2026-05-08 04:05 | 28.66914 | 72.05853 | 34797 ft | 571 kts | 139° |
| 2026-05-08 04:05 | 28.60948 | 72.11865 | 34795 ft | 571 kts | 139° |
| 2026-05-08 04:06 | 28.55022 | 72.17968 | 34787 ft | 572 kts | 134° |
| 2026-05-08 04:06 | 28.50157 | 72.25080 | 34795 ft | 570 kts | 118° |
| 2026-05-08 04:07 | 28.46933 | 72.33191 | 34797 ft | 564 kts | 103° |
| 2026-05-08 04:07 | 28.45304 | 72.41826 | 34803 ft | 559 kts | 94° |
| 2026-05-08 04:08 | 28.44093 | 72.50554 | 34801 ft | 558 kts | 94° |
| 2026-05-08 04:08 | 28.42841 | 72.59251 | 34806 ft | 558 kts | 95° |
| 2026-05-08 04:09 | 28.41546 | 72.67889 | 34808 ft | 559 kts | 95° |
| 2026-05-08 04:09 | 28.40224 | 72.76570 | 34816 ft | 559 kts | 95° |
| 2026-05-08 04:10 | 28.38890 | 72.85262 | 34824 ft | 559 kts | 95° |
| 2026-05-08 04:10 | 28.37548 | 72.93955 | 34830 ft | 559 kts | 95° |
| 2026-05-08 04:11 | 28.36209 | 73.02608 | 34830 ft | 559 kts | 95° |
| 2026-05-08 04:11 | 28.34867 | 73.11237 | 34832 ft | 558 kts | 95° |
| 2026-05-08 04:12 | 28.33516 | 73.19894 | 34824 ft | 559 kts | 96° |
| 2026-05-08 04:12 | 28.32159 | 73.28549 | 34824 ft | 559 kts | 95° |
| 2026-05-08 04:13 | 28.30788 | 73.37249 | 34820 ft | 558 kts | 96° |
| 2026-05-08 04:13 | 28.29427 | 73.45847 | 34820 ft | 558 kts | 95° |
| 2026-05-08 04:14 | 28.28055 | 73.54491 | 34823 ft | 557 kts | 96° |
| 2026-05-08 04:14 | 28.26690 | 73.63046 | 34819 ft | 557 kts | 96° |
| 2026-05-08 04:15 | 28.25314 | 73.71645 | 34816 ft | 557 kts | 96° |
| 2026-05-08 04:15 | 28.23926 | 73.80286 | 34821 ft | 557 kts | 96° |
| 2026-05-08 04:16 | 28.22533 | 73.88906 | 34819 ft | 557 kts | 96° |
| 2026-05-08 04:16 | 28.21137 | 73.97510 | 34828 ft | 557 kts | 96° |
| 2026-05-08 04:17 | 28.19875 | 74.06094 | 34832 ft | 554 kts | 92° |
| 2026-05-08 04:17 | 28.19370 | 74.14766 | 34833 ft | 548 kts | 85° |
| 2026-05-08 04:18 | 28.19712 | 74.23296 | 34849 ft | 544 kts | 79° |
| 2026-05-08 04:18 | 28.20347 | 74.31821 | 34852 ft | 544 kts | 79° |
| 2026-05-08 04:19 | 28.20972 | 74.40375 | 34857 ft | 544 kts | 79° |
| 2026-05-08 04:19 | 28.21571 | 74.48888 | 34862 ft | 545 kts | 79° |
| 2026-05-08 04:20 | 28.22155 | 74.57399 | 34860 ft | 544 kts | 80° |
| 2026-05-08 04:20 | 28.22735 | 74.65971 | 34863 ft | 543 kts | 80° |
| 2026-05-08 04:21 | 28.23302 | 74.74457 | 34858 ft | 544 kts | 81° |
| 2026-05-08 04:21 | 28.23867 | 74.83020 | 34855 ft | 543 kts | 81° |
| 2026-05-08 04:22 | 28.24430 | 74.91547 | 34853 ft | 546 kts | 81° |
| 2026-05-08 04:22 | 28.24989 | 75.00098 | 34852 ft | 547 kts | 81° |
| 2026-05-08 04:23 | 28.25544 | 75.08701 | 34868 ft | 548 kts | 81° |
| 2026-05-08 04:23 | 28.26093 | 75.17278 | 34870 ft | 548 kts | 81° |
| 2026-05-08 04:24 | 28.26637 | 75.25871 | 34873 ft | 547 kts | 81° |
| 2026-05-08 04:24 | 28.27173 | 75.34418 | 34863 ft | 547 kts | 81° |
| 2026-05-08 04:25 | 28.27707 | 75.42988 | 34874 ft | 546 kts | 81° |
| 2026-05-08 04:25 | 28.28237 | 75.51596 | 34861 ft | 546 kts | 81° |
| 2026-05-08 04:26 | 28.28755 | 75.60118 | 34868 ft | 546 kts | 81° |
| 2026-05-08 04:26 | 28.29271 | 75.68689 | 34875 ft | 545 kts | 82° |
| 2026-05-08 04:27 | 28.29779 | 75.77262 | 34876 ft | 545 kts | 82° |
| 2026-05-08 04:27 | 28.30280 | 75.85824 | 34864 ft | 545 kts | 82° |
| 2026-05-08 04:28 | 28.30776 | 75.94329 | 34884 ft | 545 kts | 82° |
| 2026-05-08 04:28 | 28.31270 | 76.02902 | 34871 ft | 545 kts | 82° |
| 2026-05-08 04:29 | 28.31758 | 76.11441 | 34881 ft | 546 kts | 82° |
| 2026-05-08 04:29 | 28.32244 | 76.20037 | 34879 ft | 544 kts | 82° |
| 2026-05-08 04:30 | 28.32719 | 76.28589 | 34886 ft | 544 kts | 82° |
| 2026-05-08 04:30 | 28.33188 | 76.37102 | 34874 ft | 544 kts | 82° |
| 2026-05-08 04:31 | 28.33651 | 76.45600 | 34876 ft | 543 kts | 82° |
| 2026-05-08 04:31 | 28.34102 | 76.54129 | 34867 ft | 543 kts | 83° |
| 2026-05-08 04:32 | 28.33957 | 76.62731 | 34875 ft | 548 kts | 92° |
| 2026-05-08 04:32 | 28.32744 | 76.71289 | 34875 ft | 551 kts | 102° |
| 2026-05-08 04:33 | 28.30478 | 76.79575 | 34892 ft | 553 kts | 109° |
| 2026-05-08 04:33 | 28.27709 | 76.87691 | 34881 ft | 553 kts | 110° |
| 2026-05-08 04:34 | 28.24926 | 76.95792 | 34882 ft | 553 kts | 110° |
| 2026-05-08 04:34 | 28.22158 | 77.03919 | 34888 ft | 553 kts | 110° |
| 2026-05-08 04:35 | 28.19416 | 77.11993 | 34894 ft | 553 kts | 110° |
| 2026-05-08 04:35 | 28.16655 | 77.20116 | 34884 ft | 553 kts | 110° |
| 2026-05-08 04:36 | 28.13892 | 77.28224 | 34877 ft | 553 kts | 110° |
| 2026-05-08 04:36 | 28.11116 | 77.36348 | 34883 ft | 553 kts | 110° |
| 2026-05-08 04:37 | 28.08345 | 77.44441 | 34876 ft | 553 kts | 110° |
| 2026-05-08 04:37 | 28.05564 | 77.52545 | 34886 ft | 553 kts | 110° |
| 2026-05-08 04:38 | 28.02788 | 77.60619 | 34884 ft | 554 kts | 110° |
| 2026-05-08 04:38 | 27.99995 | 77.68736 | 34888 ft | 553 kts | 110° |
| 2026-05-08 04:39 | 27.97227 | 77.76777 | 34895 ft | 553 kts | 110° |
| 2026-05-08 04:39 | 27.94437 | 77.84844 | 34885 ft | 553 kts | 111° |
| 2026-05-08 04:40 | 27.91628 | 77.92939 | 34879 ft | 553 kts | 111° |
| 2026-05-08 04:40 | 27.88811 | 78.01011 | 34895 ft | 553 kts | 111° |
| 2026-05-08 04:41 | 27.85978 | 78.09060 | 34882 ft | 553 kts | 111° |
| 2026-05-08 04:41 | 27.83161 | 78.17110 | 34885 ft | 554 kts | 111° |
| 2026-05-08 04:42 | 27.80218 | 78.25133 | 34881 ft | 553 kts | 112° |
| 2026-05-08 04:42 | 27.77197 | 78.33096 | 34887 ft | 554 kts | 112° |
| 2026-05-08 04:43 | 27.74170 | 78.41097 | 34878 ft | 553 kts | 112° |
| 2026-05-08 04:43 | 27.71167 | 78.49063 | 34872 ft | 553 kts | 112° |
| 2026-05-08 04:44 | 27.68170 | 78.57004 | 34885 ft | 553 kts | 112° |
| 2026-05-08 04:44 | 27.65157 | 78.64975 | 34877 ft | 554 kts | 112° |
| 2026-05-08 04:45 | 27.62137 | 78.72972 | 34892 ft | 554 kts | 113° |
| 2026-05-08 04:45 | 27.59136 | 78.80896 | 34886 ft | 554 kts | 113° |
| 2026-05-08 04:46 | 27.56112 | 78.88853 | 34897 ft | 554 kts | 113° |
| 2026-05-08 04:46 | 27.53083 | 78.96804 | 34897 ft | 554 kts | 113° |
| 2026-05-08 04:47 | 27.50052 | 79.04736 | 34893 ft | 554 kts | 113° |
| 2026-05-08 04:47 | 27.47002 | 79.12705 | 34895 ft | 555 kts | 113° |
| 2026-05-08 04:48 | 27.43953 | 79.20653 | 34888 ft | 554 kts | 113° |
| 2026-05-08 04:48 | 27.40904 | 79.28588 | 34891 ft | 555 kts | 113° |
| 2026-05-08 04:49 | 27.37842 | 79.36546 | 34894 ft | 554 kts | 113° |
| 2026-05-08 04:49 | 27.34794 | 79.44444 | 34887 ft | 554 kts | 113° |
| 2026-05-08 04:50 | 27.31685 | 79.52404 | 34889 ft | 554 kts | 114° |
| 2026-05-08 04:50 | 27.28515 | 79.60284 | 34896 ft | 555 kts | 115° |
| 2026-05-08 04:51 | 27.25349 | 79.68132 | 34888 ft | 555 kts | 115° |
| 2026-05-08 04:51 | 27.22193 | 79.75999 | 34893 ft | 555 kts | 115° |
| 2026-05-08 04:52 | 27.19009 | 79.83917 | 34905 ft | 555 kts | 115° |
| 2026-05-08 04:52 | 27.15828 | 79.91797 | 34894 ft | 555 kts | 115° |
| 2026-05-08 04:53 | 27.12644 | 79.99663 | 34892 ft | 555 kts | 115° |
| 2026-05-08 04:53 | 27.09452 | 80.07539 | 34884 ft | 555 kts | 115° |
| 2026-05-08 04:54 | 27.06245 | 80.15430 | 34879 ft | 556 kts | 115° |
| 2026-05-08 04:54 | 27.03054 | 80.23269 | 34881 ft | 557 kts | 115° |
| 2026-05-08 04:55 | 26.99831 | 80.31171 | 34876 ft | 556 kts | 115° |
| 2026-05-08 04:55 | 26.96627 | 80.39012 | 34881 ft | 556 kts | 115° |
| 2026-05-08 04:56 | 26.93394 | 80.46906 | 34876 ft | 556 kts | 115° |
| 2026-05-08 04:56 | 26.90183 | 80.54736 | 34881 ft | 556 kts | 116° |
| 2026-05-08 04:57 | 26.86926 | 80.62596 | 34887 ft | 555 kts | 116° |
| 2026-05-08 04:57 | 26.83695 | 80.70417 | 34885 ft | 555 kts | 116° |
| 2026-05-08 04:58 | 26.80478 | 80.78246 | 34885 ft | 555 kts | 116° |
| 2026-05-08 04:58 | 26.77175 | 80.86034 | 34889 ft | 554 kts | 119° |
| 2026-05-08 04:59 | 26.73266 | 80.93398 | 34882 ft | 550 kts | 127° |
| 2026-05-08 04:59 | 26.68824 | 81.00293 | 34886 ft | 549 kts | 129° |
| 2026-05-08 05:00 | 26.64304 | 81.07168 | 34892 ft | 549 kts | 129° |
| 2026-05-08 05:00 | 26.59784 | 81.14065 | 34895 ft | 549 kts | 129° |
| 2026-05-08 05:01 | 26.55296 | 81.20923 | 34889 ft | 549 kts | 129° |
| 2026-05-08 05:01 | 26.50807 | 81.27781 | 34878 ft | 549 kts | 129° |
| 2026-05-08 05:02 | 26.46302 | 81.34652 | 34878 ft | 549 kts | 129° |
| 2026-05-08 05:02 | 26.41793 | 81.41522 | 34875 ft | 548 kts | 129° |
| 2026-05-08 05:03 | 26.37286 | 81.48371 | 34874 ft | 549 kts | 129° |
| 2026-05-08 05:03 | 26.32777 | 81.55218 | 34871 ft | 548 kts | 129° |
| 2026-05-08 05:04 | 26.28270 | 81.62051 | 34871 ft | 548 kts | 129° |
| 2026-05-08 05:04 | 26.23753 | 81.68903 | 34866 ft | 548 kts | 130° |
| 2026-05-08 05:05 | 26.19254 | 81.75738 | 34872 ft | 547 kts | 130° |
| 2026-05-08 05:05 | 26.14756 | 81.82545 | 34880 ft | 546 kts | 130° |
| 2026-05-08 05:06 | 26.10243 | 81.89349 | 34878 ft | 546 kts | 130° |
| 2026-05-08 05:06 | 26.05752 | 81.96106 | 34878 ft | 546 kts | 130° |
| 2026-05-08 05:07 | 26.01233 | 82.02895 | 34876 ft | 547 kts | 130° |
| 2026-05-08 05:07 | 25.96724 | 82.09660 | 34874 ft | 547 kts | 130° |
| 2026-05-08 05:08 | 25.92197 | 82.16444 | 34876 ft | 546 kts | 130° |
| 2026-05-08 05:08 | 25.87666 | 82.23207 | 34876 ft | 546 kts | 131° |
| 2026-05-08 05:09 | 25.83114 | 82.29961 | 34872 ft | 546 kts | 131° |
| 2026-05-08 05:09 | 25.78574 | 82.36716 | 34869 ft | 546 kts | 131° |
| 2026-05-08 05:10 | 25.71767 | 82.46849 | 34872 ft | 545 kts | 130° |
| 2026-05-08 05:11 | 25.67222 | 82.53608 | 34871 ft | 545 kts | 131° |
| 2026-05-08 05:11 | 25.62666 | 82.60376 | 34868 ft | 546 kts | 131° |
| 2026-05-08 05:12 | 25.58129 | 82.67114 | 34862 ft | 545 kts | 131° |
| 2026-05-08 05:12 | 25.53614 | 82.73837 | 34868 ft | 545 kts | 131° |
| 2026-05-08 05:13 | 25.49150 | 82.80631 | 34864 ft | 548 kts | 128° |
| 2026-05-08 05:13 | 25.45258 | 82.87882 | 34865 ft | 552 kts | 121° |
| 2026-05-08 05:14 | 25.42098 | 82.95667 | 34862 ft | 556 kts | 114° |
| 2026-05-08 05:14 | 25.39441 | 83.03668 | 34859 ft | 556 kts | 113° |
| 2026-05-08 05:15 | 25.36796 | 83.11683 | 34855 ft | 556 kts | 113° |
| 2026-05-08 05:15 | 25.34120 | 83.19707 | 34854 ft | 555 kts | 114° |
| 2026-05-08 05:16 | 25.31451 | 83.27657 | 34851 ft | 555 kts | 114° |
| 2026-05-08 05:16 | 25.28760 | 83.35644 | 34849 ft | 556 kts | 114° |
| 2026-05-08 05:17 | 25.26051 | 83.43674 | 34845 ft | 556 kts | 114° |
| 2026-05-08 05:17 | 25.23364 | 83.51623 | 34846 ft | 556 kts | 114° |
| 2026-05-08 05:18 | 25.20650 | 83.59634 | 34840 ft | 556 kts | 114° |
| 2026-05-08 05:18 | 25.17933 | 83.67639 | 34838 ft | 556 kts | 114° |
| 2026-05-08 05:19 | 25.15246 | 83.75581 | 34835 ft | 556 kts | 114° |
| 2026-05-08 05:19 | 25.12530 | 83.83575 | 34836 ft | 555 kts | 115° |
| 2026-05-08 05:20 | 25.09823 | 83.91499 | 34836 ft | 555 kts | 115° |
| 2026-05-08 05:20 | 25.07114 | 83.99417 | 34836 ft | 554 kts | 115° |
| 2026-05-08 05:21 | 25.04379 | 84.07391 | 34838 ft | 554 kts | 115° |
| 2026-05-08 05:21 | 25.01654 | 84.15315 | 34836 ft | 554 kts | 115° |
| 2026-05-08 05:22 | 24.98921 | 84.23257 | 34841 ft | 555 kts | 115° |
| 2026-05-08 05:22 | 24.96192 | 84.31169 | 34836 ft | 554 kts | 115° |
| 2026-05-08 05:23 | 24.93465 | 84.39056 | 34841 ft | 555 kts | 115° |
| 2026-05-08 05:23 | 24.90720 | 84.46984 | 34840 ft | 554 kts | 115° |
| 2026-05-08 05:24 | 24.87950 | 84.54911 | 34842 ft | 554 kts | 115° |
| 2026-05-08 05:24 | 24.85167 | 84.62839 | 34850 ft | 555 kts | 115° |
| 2026-05-08 05:25 | 24.82419 | 84.70738 | 34856 ft | 555 kts | 115° |
| 2026-05-08 05:25 | 24.79670 | 84.78657 | 34866 ft | 555 kts | 115° |
| 2026-05-08 05:26 | 24.76903 | 84.86578 | 34874 ft | 555 kts | 116° |
| 2026-05-08 05:26 | 24.73751 | 84.94247 | 34874 ft | 548 kts | 123° |
| 2026-05-08 05:27 | 24.69891 | 85.01371 | 34878 ft | 542 kts | 129° |
| 2026-05-08 05:27 | 24.65654 | 85.08210 | 34882 ft | 542 kts | 130° |
| 2026-05-08 05:28 | 24.61419 | 85.15025 | 34880 ft | 542 kts | 130° |
| 2026-05-08 05:28 | 24.57163 | 85.21899 | 34880 ft | 542 kts | 130° |
| 2026-05-08 05:29 | 24.52918 | 85.28761 | 34894 ft | 542 kts | 130° |
| 2026-05-08 05:29 | 24.48697 | 85.35577 | 34901 ft | 541 kts | 130° |
| 2026-05-08 05:30 | 24.44471 | 85.42389 | 34913 ft | 541 kts | 130° |
| 2026-05-08 05:30 | 24.40239 | 85.49202 | 34914 ft | 541 kts | 130° |
| 2026-05-08 05:31 | 24.35997 | 85.56021 | 34913 ft | 542 kts | 130° |
| 2026-05-08 05:31 | 24.31753 | 85.62837 | 34916 ft | 542 kts | 130° |
| 2026-05-08 05:32 | 24.27527 | 85.69635 | 34916 ft | 541 kts | 130° |
| 2026-05-08 05:32 | 24.23296 | 85.76444 | 34914 ft | 541 kts | 130° |
| 2026-05-08 05:33 | 24.19038 | 85.83267 | 34915 ft | 541 kts | 130° |
| 2026-05-08 05:33 | 24.14797 | 85.90044 | 34916 ft | 539 kts | 130° |
| 2026-05-08 05:34 | 24.10572 | 85.96780 | 34910 ft | 540 kts | 130° |
| 2026-05-08 05:34 | 24.06318 | 86.03556 | 34904 ft | 539 kts | 130° |
| 2026-05-08 05:35 | 24.02098 | 86.10265 | 34903 ft | 539 kts | 130° |
| 2026-05-08 05:35 | 23.97847 | 86.17016 | 34908 ft | 538 kts | 130° |
| 2026-05-08 05:36 | 23.93594 | 86.23762 | 34907 ft | 537 kts | 130° |
| 2026-05-08 05:36 | 23.89372 | 86.30447 | 34919 ft | 538 kts | 130° |
| 2026-05-08 05:37 | 23.85109 | 86.37151 | 34911 ft | 537 kts | 131° |
| 2026-05-08 05:37 | 23.80895 | 86.43881 | 34910 ft | 538 kts | 128° |
| 2026-05-08 05:38 | 23.76966 | 86.50876 | 34904 ft | 540 kts | 127° |
| 2026-05-08 05:38 | 23.73103 | 86.57857 | 34903 ft | 540 kts | 127° |
| 2026-05-08 05:39 | 23.69215 | 86.64871 | 34902 ft | 539 kts | 127° |
| 2026-05-08 05:39 | 23.65344 | 86.71864 | 34892 ft | 539 kts | 127° |
| 2026-05-08 05:40 | 23.61491 | 86.78809 | 34894 ft | 538 kts | 127° |
| 2026-05-08 05:40 | 23.57610 | 86.85770 | 34887 ft | 538 kts | 127° |
| 2026-05-08 05:41 | 23.53733 | 86.92707 | 34890 ft | 538 kts | 127° |
| 2026-05-08 05:41 | 23.49852 | 86.99645 | 34890 ft | 538 kts | 127° |
| 2026-05-08 05:42 | 23.45963 | 87.06589 | 34890 ft | 537 kts | 127° |
| 2026-05-08 05:42 | 23.42070 | 87.13541 | 34892 ft | 537 kts | 127° |
| 2026-05-08 05:43 | 23.38193 | 87.20462 | 34893 ft | 535 kts | 127° |
| 2026-05-08 05:43 | 23.34323 | 87.27361 | 34886 ft | 535 kts | 127° |
| 2026-05-08 05:44 | 23.30460 | 87.34233 | 34883 ft | 535 kts | 127° |
| 2026-05-08 05:44 | 23.26586 | 87.41119 | 34878 ft | 534 kts | 127° |
| 2026-05-08 05:45 | 23.22711 | 87.47996 | 34874 ft | 535 kts | 127° |
| 2026-05-08 05:45 | 23.18807 | 87.54917 | 34870 ft | 535 kts | 127° |
| 2026-05-08 05:46 | 23.14937 | 87.61768 | 34874 ft | 536 kts | 127° |
| 2026-05-08 05:46 | 23.11050 | 87.68655 | 34870 ft | 535 kts | 127° |
| 2026-05-08 05:47 | 23.07171 | 87.75542 | 34862 ft | 534 kts | 127° |
| 2026-05-08 05:47 | 23.03278 | 87.82422 | 34870 ft | 533 kts | 127° |
| 2026-05-08 05:48 | 22.99396 | 87.89259 | 34866 ft | 533 kts | 127° |
| 2026-05-08 05:48 | 22.95537 | 87.96044 | 34867 ft | 532 kts | 127° |
| 2026-05-08 05:49 | 22.91631 | 88.02902 | 34862 ft | 532 kts | 127° |
| 2026-05-08 05:49 | 22.87747 | 88.09692 | 34858 ft | 533 kts | 127° |
| 2026-05-08 05:50 | 22.83830 | 88.16504 | 34867 ft | 533 kts | 127° |
| 2026-05-08 05:50 | 22.79922 | 88.23334 | 34865 ft | 532 kts | 127° |
| 2026-05-08 05:51 | 22.76016 | 88.30168 | 34875 ft | 533 kts | 127° |
| 2026-05-08 05:51 | 22.72188 | 88.37026 | 34873 ft | 535 kts | 123° |
| 2026-05-08 05:52 | 22.68980 | 88.44280 | 34881 ft | 540 kts | 116° |
| 2026-05-08 05:52 | 22.66569 | 88.52031 | 34883 ft | 545 kts | 109° |
| 2026-05-08 05:53 | 22.65003 | 88.60079 | 34883 ft | 549 kts | 103° |
| 2026-05-08 05:53 | 22.63710 | 88.68193 | 34871 ft | 549 kts | 103° |
| 2026-05-08 05:54 | 22.62390 | 88.76334 | 34869 ft | 549 kts | 104° |
| 2026-05-08 05:54 | 22.61038 | 88.84444 | 34862 ft | 550 kts | 104° |
| 2026-05-08 05:55 | 22.59684 | 88.92513 | 34864 ft | 550 kts | 103° |
| 2026-05-08 05:55 | 22.58665 | 89.00707 | 34872 ft | 551 kts | 100° |
| 2026-05-08 05:56 | 22.57773 | 89.08946 | 34879 ft | 551 kts | 100° |
| 2026-05-08 05:56 | 22.56876 | 89.17179 | 34881 ft | 551 kts | 100° |
| 2026-05-08 05:57 | 22.55975 | 89.25365 | 34879 ft | 551 kts | 100° |
| 2026-05-08 05:57 | 22.55061 | 89.33573 | 34883 ft | 551 kts | 100° |
| 2026-05-08 05:58 | 22.54140 | 89.41804 | 34883 ft | 551 kts | 100° |
| 2026-05-08 05:58 | 22.53217 | 89.49999 | 34879 ft | 551 kts | 100° |
| 2026-05-08 05:59 | 22.52294 | 89.58185 | 34886 ft | 551 kts | 100° |
| 2026-05-08 05:59 | 22.51361 | 89.66412 | 34883 ft | 550 kts | 100° |
| 2026-05-08 06:00 | 22.50433 | 89.74608 | 34885 ft | 551 kts | 100° |
| 2026-05-08 06:00 | 22.49503 | 89.82776 | 34887 ft | 552 kts | 100° |
| 2026-05-08 06:01 | 22.48560 | 89.90978 | 34887 ft | 551 kts | 100° |
| 2026-05-08 06:01 | 22.47616 | 89.99167 | 34887 ft | 551 kts | 101° |
| 2026-05-08 06:02 | 22.46665 | 90.07359 | 34890 ft | 551 kts | 101° |
| 2026-05-08 06:02 | 22.45705 | 90.15582 | 34890 ft | 551 kts | 101° |
| 2026-05-08 06:03 | 22.44749 | 90.23755 | 34894 ft | 551 kts | 100° |
| 2026-05-08 06:03 | 22.43781 | 90.31990 | 34897 ft | 551 kts | 101° |
| 2026-05-08 06:04 | 22.42816 | 90.40163 | 34897 ft | 551 kts | 101° |
| 2026-05-08 06:04 | 22.41842 | 90.48367 | 34899 ft | 550 kts | 100° |
| 2026-05-08 06:05 | 22.40867 | 90.56551 | 34899 ft | 551 kts | 101° |
| 2026-05-08 06:05 | 22.39892 | 90.64690 | 34900 ft | 550 kts | 101° |
| 2026-05-08 06:06 | 22.38913 | 90.72881 | 34899 ft | 550 kts | 101° |
| 2026-05-08 06:06 | 22.37930 | 90.81059 | 34901 ft | 550 kts | 101° |
| 2026-05-08 06:07 | 22.36938 | 90.89250 | 34896 ft | 550 kts | 101° |
| 2026-05-08 06:07 | 22.35948 | 90.97369 | 34896 ft | 549 kts | 101° |
| 2026-05-08 06:08 | 22.34946 | 91.05574 | 34891 ft | 549 kts | 101° |
| 2026-05-08 06:08 | 22.33941 | 91.13756 | 34890 ft | 548 kts | 101° |
| 2026-05-08 06:09 | 22.32931 | 91.21948 | 34890 ft | 548 kts | 101° |
| 2026-05-08 06:09 | 22.31915 | 91.30138 | 34889 ft | 548 kts | 101° |
| 2026-05-08 06:10 | 22.30902 | 91.38278 | 34885 ft | 548 kts | 101° |
| 2026-05-08 06:10 | 22.29953 | 91.46468 | 34888 ft | 549 kts | 100° |
| 2026-05-08 06:11 | 22.29034 | 91.54634 | 34882 ft | 549 kts | 100° |
| 2026-05-08 06:11 | 22.28100 | 91.62811 | 34879 ft | 549 kts | 100° |
| 2026-05-08 06:12 | 22.27152 | 91.71036 | 34875 ft | 549 kts | 101° |
| 2026-05-08 06:12 | 22.26204 | 91.79217 | 34876 ft | 549 kts | 101° |
| 2026-05-08 06:13 | 22.25442 | 91.87482 | 34874 ft | 550 kts | 97° |
| 2026-05-08 06:13 | 22.24871 | 91.95720 | 34872 ft | 551 kts | 97° |
| 2026-05-08 06:14 | 22.24292 | 92.04015 | 34867 ft | 551 kts | 97° |
| 2026-05-08 06:14 | 22.23704 | 92.12221 | 34869 ft | 551 kts | 97° |
| 2026-05-08 06:15 | 22.23104 | 92.20473 | 34871 ft | 550 kts | 97° |
| 2026-05-08 06:15 | 22.22509 | 92.28695 | 34874 ft | 550 kts | 97° |
| 2026-05-08 06:16 | 22.22012 | 92.36970 | 34884 ft | 549 kts | 96° |
| 2026-05-08 06:16 | 22.21535 | 92.45160 | 34899 ft | 550 kts | 96° |
| 2026-05-08 06:17 | 22.20779 | 92.57590 | 34916 ft | 550 kts | 97° |
| 2026-05-08 06:17 | 22.20273 | 92.65771 | 34915 ft | 550 kts | 97° |
| 2026-05-08 06:18 | 22.19737 | 92.73993 | 34916 ft | 550 kts | 97° |
| 2026-05-08 06:18 | 22.19181 | 92.82281 | 34939 ft | 549 kts | 97° |
| 2026-05-08 06:19 | 22.18622 | 92.90485 | 34984 ft | 550 kts | 97° |
| 2026-05-08 06:19 | 22.18059 | 92.98717 | 35030 ft | 551 kts | 97° |
| 2026-05-08 06:20 | 22.17493 | 93.06957 | 35067 ft | 550 kts | 97° |
| 2026-05-08 06:20 | 22.16924 | 93.15156 | 35099 ft | 550 kts | 97° |
| 2026-05-08 06:21 | 22.16349 | 93.23351 | 35129 ft | 550 kts | 97° |
| 2026-05-08 06:21 | 22.15773 | 93.31554 | 35147 ft | 549 kts | 97° |
| 2026-05-08 06:22 | 22.15193 | 93.39736 | 35149 ft | 549 kts | 97° |
| 2026-05-08 06:22 | 22.14609 | 93.47926 | 35151 ft | 548 kts | 97° |
| 2026-05-08 06:23 | 22.14020 | 93.56113 | 35144 ft | 549 kts | 97° |
| 2026-05-08 06:23 | 22.13429 | 93.64275 | 35108 ft | 549 kts | 97° |
| 2026-05-08 06:24 | 22.12834 | 93.72477 | 35062 ft | 548 kts | 97° |
| 2026-05-08 06:24 | 22.12236 | 93.80656 | 35019 ft | 549 kts | 97° |
| 2026-05-08 06:25 | 22.11633 | 93.88847 | 34983 ft | 548 kts | 97° |
| 2026-05-08 06:25 | 22.11023 | 93.97018 | 34947 ft | 548 kts | 97° |
| 2026-05-08 06:26 | 22.10410 | 94.05205 | 34929 ft | 548 kts | 97° |
| 2026-05-08 06:26 | 22.09796 | 94.13351 | 34932 ft | 548 kts | 97° |
| 2026-05-08 06:27 | 22.09174 | 94.21521 | 34946 ft | 548 kts | 97° |
| 2026-05-08 06:27 | 22.08551 | 94.29686 | 34955 ft | 547 kts | 97° |
| 2026-05-08 06:28 | 22.07925 | 94.37832 | 34948 ft | 547 kts | 97° |
| 2026-05-08 06:28 | 22.07298 | 94.45926 | 34935 ft | 547 kts | 97° |
| 2026-05-08 06:29 | 22.06659 | 94.54124 | 34918 ft | 547 kts | 97° |
| 2026-05-08 06:29 | 22.06022 | 94.62248 | 34900 ft | 547 kts | 97° |
| 2026-05-08 06:30 | 22.05377 | 94.70430 | 34889 ft | 547 kts | 97° |
| 2026-05-08 06:30 | 22.04735 | 94.78563 | 34879 ft | 547 kts | 97° |
| 2026-05-08 06:31 | 22.04087 | 94.86681 | 34858 ft | 546 kts | 97° |
| 2026-05-08 06:31 | 22.03431 | 94.94834 | 34850 ft | 546 kts | 97° |
| 2026-05-08 06:32 | 22.02771 | 95.02977 | 34845 ft | 547 kts | 97° |
| 2026-05-08 06:32 | 22.02112 | 95.11063 | 34840 ft | 547 kts | 97° |
| 2026-05-08 06:33 | 22.01446 | 95.19209 | 34837 ft | 547 kts | 97° |
| 2026-05-08 06:33 | 22.00776 | 95.27340 | 34830 ft | 546 kts | 97° |
| 2026-05-08 06:34 | 22.00100 | 95.35474 | 34830 ft | 546 kts | 97° |
| 2026-05-08 06:34 | 21.99419 | 95.43613 | 34827 ft | 546 kts | 97° |
| 2026-05-08 06:35 | 21.98738 | 95.51720 | 34826 ft | 546 kts | 97° |
| 2026-05-08 06:35 | 21.98054 | 95.59808 | 34827 ft | 545 kts | 97° |
| 2026-05-08 06:36 | 21.97362 | 95.67956 | 34824 ft | 546 kts | 98° |
| 2026-05-08 06:36 | 21.96673 | 95.76069 | 34830 ft | 545 kts | 97° |
| 2026-05-08 06:37 | 21.95978 | 95.84154 | 34836 ft | 546 kts | 98° |
| 2026-05-08 06:37 | 21.95271 | 95.92293 | 34839 ft | 545 kts | 98° |
| 2026-05-08 06:38 | 21.94563 | 96.00365 | 34838 ft | 545 kts | 98° |
| 2026-05-08 06:38 | 21.93838 | 96.08480 | 34850 ft | 545 kts | 99° |
| 2026-05-08 06:39 | 21.92601 | 96.16500 | 34873 ft | 541 kts | 106° |
| 2026-05-08 06:39 | 21.90756 | 96.24282 | 34887 ft | 540 kts | 108° |
| 2026-05-08 06:40 | 21.88814 | 96.32070 | 34900 ft | 539 kts | 108° |
| 2026-05-08 06:40 | 21.86867 | 96.39839 | 34913 ft | 539 kts | 108° |
| 2026-05-08 06:41 | 21.84942 | 96.47621 | 34919 ft | 539 kts | 107° |
| 2026-05-08 06:41 | 21.83016 | 96.55447 | 34914 ft | 540 kts | 108° |
| 2026-05-08 06:42 | 21.81106 | 96.63209 | 34933 ft | 539 kts | 107° |
| 2026-05-08 06:42 | 21.79195 | 96.70976 | 34961 ft | 538 kts | 108° |
| 2026-05-08 06:43 | 21.77287 | 96.78737 | 35000 ft | 538 kts | 108° |
| 2026-05-08 06:43 | 21.75363 | 96.86520 | 35015 ft | 538 kts | 108° |
| 2026-05-08 06:44 | 21.73444 | 96.94254 | 35019 ft | 538 kts | 108° |
| 2026-05-08 06:44 | 21.71516 | 97.02010 | 35017 ft | 538 kts | 108° |
| 2026-05-08 06:45 | 21.69577 | 97.09785 | 35022 ft | 538 kts | 108° |
| 2026-05-08 06:45 | 21.67642 | 97.17532 | 35028 ft | 537 kts | 107° |
| 2026-05-08 06:46 | 21.65698 | 97.25301 | 35032 ft | 537 kts | 108° |
| 2026-05-08 06:46 | 21.63769 | 97.32999 | 35038 ft | 537 kts | 108° |
| 2026-05-08 06:47 | 21.61818 | 97.40753 | 35054 ft | 536 kts | 107° |
| 2026-05-08 06:47 | 21.59876 | 97.48464 | 35078 ft | 537 kts | 107° |
| 2026-05-08 06:48 | 21.57917 | 97.56224 | 35085 ft | 537 kts | 107° |
| 2026-05-08 06:48 | 21.55974 | 97.63904 | 35073 ft | 537 kts | 107° |
| 2026-05-08 06:49 | 21.54014 | 97.71663 | 35058 ft | 536 kts | 108° |
| 2026-05-08 06:49 | 21.52072 | 97.79346 | 35051 ft | 536 kts | 108° |
| 2026-05-08 06:50 | 21.50101 | 97.87093 | 35051 ft | 535 kts | 108° |
| 2026-05-08 06:50 | 21.48138 | 97.94789 | 35062 ft | 535 kts | 107° |
| 2026-05-08 06:51 | 21.46179 | 98.02455 | 35063 ft | 535 kts | 107° |
| 2026-05-08 06:51 | 21.44202 | 98.10181 | 35051 ft | 535 kts | 107° |
| 2026-05-08 06:52 | 21.42232 | 98.17864 | 35033 ft | 535 kts | 107° |
| 2026-05-08 06:52 | 21.40245 | 98.25590 | 35016 ft | 535 kts | 107° |
| 2026-05-08 06:53 | 21.38262 | 98.33278 | 35009 ft | 535 kts | 107° |
| 2026-05-08 06:53 | 21.36283 | 98.40947 | 35006 ft | 535 kts | 107° |
| 2026-05-08 06:54 | 21.34302 | 98.48600 | 35000 ft | 535 kts | 107° |
| 2026-05-08 06:54 | 21.32297 | 98.56335 | 34997 ft | 535 kts | 107° |
| 2026-05-08 06:55 | 21.30300 | 98.64022 | 35011 ft | 535 kts | 107° |
| 2026-05-08 06:55 | 21.28304 | 98.71718 | 35028 ft | 534 kts | 108° |
| 2026-05-08 06:56 | 21.26316 | 98.79371 | 35057 ft | 534 kts | 108° |
| 2026-05-08 06:56 | 21.24338 | 98.86952 | 35062 ft | 534 kts | 108° |
| 2026-05-08 06:57 | 21.22323 | 98.94643 | 35056 ft | 533 kts | 107° |
| 2026-05-08 06:57 | 21.20322 | 99.02271 | 35049 ft | 532 kts | 107° |
| 2026-05-08 06:58 | 21.18316 | 99.09902 | 35048 ft | 532 kts | 107° |
| 2026-05-08 06:58 | 21.16302 | 99.17547 | 35048 ft | 532 kts | 107° |
| 2026-05-08 06:59 | 21.14297 | 99.25140 | 35050 ft | 531 kts | 107° |
| 2026-05-08 06:59 | 21.12288 | 99.32736 | 35050 ft | 531 kts | 107° |
| 2026-05-08 07:00 | 21.10272 | 99.40344 | 35065 ft | 531 kts | 107° |
| 2026-05-08 07:00 | 21.08242 | 99.47989 | 35072 ft | 531 kts | 107° |
| 2026-05-08 07:01 | 21.06214 | 99.55609 | 35084 ft | 529 kts | 107° |
| 2026-05-08 07:01 | 21.04203 | 99.63158 | 35082 ft | 530 kts | 107° |
| 2026-05-08 07:02 | 21.02180 | 99.70754 | 35067 ft | 529 kts | 107° |
| 2026-05-08 07:02 | 21.00171 | 99.78289 | 35056 ft | 529 kts | 107° |
| 2026-05-08 07:03 | 20.98145 | 99.85857 | 35037 ft | 528 kts | 107° |
| 2026-05-08 07:03 | 20.96112 | 99.93423 | 35014 ft | 528 kts | 107° |
| 2026-05-08 07:04 | 20.94074 | 100.00996 | 34998 ft | 527 kts | 107° |
| 2026-05-08 07:04 | 20.92044 | 100.08524 | 34986 ft | 527 kts | 107° |
| 2026-05-08 07:05 | 20.90009 | 100.16050 | 34980 ft | 526 kts | 107° |
| 2026-05-08 07:05 | 20.87948 | 100.23559 | 34972 ft | 526 kts | 107° |
| 2026-05-08 07:06 | 20.85896 | 100.31067 | 34973 ft | 526 kts | 107° |
| 2026-05-08 07:06 | 20.83989 | 100.38631 | 34988 ft | 526 kts | 103° |
| 2026-05-08 07:07 | 20.82886 | 100.46351 | 35010 ft | 526 kts | 95° |
| 2026-05-08 07:07 | 20.82724 | 100.54179 | 35028 ft | 527 kts | 87° |
| 2026-05-08 07:08 | 20.83448 | 100.61961 | 35040 ft | 527 kts | 82° |
| 2026-05-08 07:08 | 20.84425 | 100.69739 | 35043 ft | 527 kts | 82° |
| 2026-05-08 07:09 | 20.85380 | 100.77471 | 35044 ft | 526 kts | 82° |
| 2026-05-08 07:09 | 20.86320 | 100.85236 | 35045 ft | 525 kts | 83° |
| 2026-05-08 07:10 | 20.87250 | 100.92992 | 35041 ft | 525 kts | 83° |
| 2026-05-08 07:10 | 20.88175 | 101.00736 | 35039 ft | 524 kts | 83° |
| 2026-05-08 07:11 | 20.89094 | 101.08472 | 35039 ft | 525 kts | 83° |
| 2026-05-08 07:11 | 20.90013 | 101.16227 | 35034 ft | 526 kts | 83° |
| 2026-05-08 07:12 | 20.90924 | 101.23953 | 35029 ft | 526 kts | 83° |
| 2026-05-08 07:12 | 20.91838 | 101.31725 | 35019 ft | 526 kts | 83° |
| 2026-05-08 07:13 | 20.92747 | 101.39494 | 35007 ft | 526 kts | 83° |
| 2026-05-08 07:13 | 20.93652 | 101.47265 | 35010 ft | 526 kts | 83° |
| 2026-05-08 07:14 | 20.94553 | 101.55035 | 35013 ft | 526 kts | 83° |
| 2026-05-08 07:14 | 20.95445 | 101.62746 | 35013 ft | 526 kts | 83° |
| 2026-05-08 07:15 | 20.96338 | 101.70521 | 35015 ft | 526 kts | 83° |
| 2026-05-08 07:15 | 20.97228 | 101.78326 | 35017 ft | 527 kts | 83° |
| 2026-05-08 07:16 | 20.98111 | 101.86063 | 35026 ft | 526 kts | 83° |
| 2026-05-08 07:16 | 20.98994 | 101.93818 | 35035 ft | 526 kts | 83° |
| 2026-05-08 07:17 | 20.99877 | 102.01611 | 35039 ft | 526 kts | 83° |
| 2026-05-08 07:17 | 21.00758 | 102.09419 | 35035 ft | 526 kts | 83° |
| 2026-05-08 07:18 | 21.01631 | 102.17196 | 35032 ft | 527 kts | 83° |
| 2026-05-08 07:18 | 21.02503 | 102.24998 | 35034 ft | 526 kts | 83° |
| 2026-05-08 07:19 | 21.03365 | 102.32740 | 35033 ft | 526 kts | 83° |
| 2026-05-08 07:19 | 21.04233 | 102.40552 | 35030 ft | 526 kts | 83° |
| 2026-05-08 07:20 | 21.05091 | 102.48315 | 35033 ft | 526 kts | 83° |
| 2026-05-08 07:20 | 21.05944 | 102.56071 | 35023 ft | 526 kts | 83° |
| 2026-05-08 07:21 | 21.06797 | 102.63841 | 35005 ft | 525 kts | 83° |
| 2026-05-08 07:21 | 21.07642 | 102.71616 | 34989 ft | 526 kts | 83° |
| 2026-05-08 07:22 | 21.08481 | 102.79347 | 34981 ft | 525 kts | 83° |
| 2026-05-08 07:22 | 21.09321 | 102.87100 | 35000 ft | 526 kts | 83° |
| 2026-05-08 07:23 | 21.10162 | 102.94880 | 35014 ft | 525 kts | 83° |
| 2026-05-08 07:23 | 21.11019 | 103.02622 | 35035 ft | 525 kts | 83° |
| 2026-05-08 07:24 | 21.11870 | 103.10442 | 35036 ft | 525 kts | 83° |
| 2026-05-08 07:24 | 21.12699 | 103.18200 | 35044 ft | 526 kts | 83° |
| 2026-05-08 07:25 | 21.13516 | 103.25937 | 35048 ft | 525 kts | 83° |
| 2026-05-08 07:26 | 21.14742 | 103.37604 | 35043 ft | 526 kts | 83° |
| 2026-05-08 07:26 | 21.15553 | 103.45376 | 35041 ft | 526 kts | 83° |
| 2026-05-08 07:27 | 21.16363 | 103.53153 | 35039 ft | 525 kts | 83° |
| 2026-05-08 07:27 | 21.17168 | 103.60938 | 35043 ft | 525 kts | 83° |
| 2026-05-08 07:28 | 21.17965 | 103.68691 | 35039 ft | 525 kts | 83° |
| 2026-05-08 07:28 | 21.18754 | 103.76434 | 35041 ft | 525 kts | 83° |
| 2026-05-08 07:29 | 21.19546 | 103.84212 | 35035 ft | 525 kts | 83° |
| 2026-05-08 07:29 | 21.20330 | 103.91958 | 35028 ft | 524 kts | 83° |
| 2026-05-08 07:30 | 21.21114 | 103.99742 | 35021 ft | 525 kts | 83° |
| 2026-05-08 07:30 | 21.21540 | 104.07571 | 35014 ft | 526 kts | 90° |
| 2026-05-08 07:31 | 21.21523 | 104.15397 | 35011 ft | 526 kts | 90° |
| 2026-05-08 07:31 | 21.21473 | 104.23199 | 34998 ft | 525 kts | 90° |
| 2026-05-08 07:32 | 21.21428 | 104.31045 | 35001 ft | 525 kts | 90° |
| 2026-05-08 07:32 | 21.21388 | 104.38871 | 35018 ft | 525 kts | 90° |
| 2026-05-08 07:33 | 21.21346 | 104.46632 | 35033 ft | 524 kts | 90° |
| 2026-05-08 07:33 | 21.21300 | 104.54425 | 35041 ft | 524 kts | 90° |
| 2026-05-08 07:34 | 21.21251 | 104.62233 | 35025 ft | 524 kts | 90° |
| 2026-05-08 07:34 | 21.21199 | 104.70042 | 34999 ft | 524 kts | 90° |
| 2026-05-08 07:35 | 21.21142 | 104.77838 | 34973 ft | 524 kts | 90° |
| 2026-05-08 07:35 | 21.21082 | 104.85647 | 34966 ft | 524 kts | 90° |
| 2026-05-08 07:36 | 21.21016 | 104.93441 | 34967 ft | 523 kts | 90° |
| 2026-05-08 07:36 | 21.20947 | 105.01257 | 34969 ft | 523 kts | 90° |
| 2026-05-08 07:37 | 21.20874 | 105.09004 | 34962 ft | 522 kts | 90° |
| 2026-05-08 07:37 | 21.20920 | 105.16796 | 34942 ft | 522 kts | 88° |
| 2026-05-08 07:38 | 21.21117 | 105.24571 | 34929 ft | 522 kts | 88° |
| 2026-05-08 07:38 | 21.21299 | 105.32374 | 34915 ft | 522 kts | 88° |
| 2026-05-08 07:39 | 21.21459 | 105.40131 | 34916 ft | 523 kts | 88° |
| 2026-05-08 07:39 | 21.21608 | 105.47900 | 34915 ft | 522 kts | 88° |
| 2026-05-08 07:40 | 21.21754 | 105.55705 | 34921 ft | 522 kts | 88° |
| 2026-05-08 07:40 | 21.21895 | 105.63474 | 34919 ft | 522 kts | 88° |
| 2026-05-08 07:41 | 21.22030 | 105.71234 | 34922 ft | 522 kts | 89° |
| 2026-05-08 07:41 | 21.22161 | 105.78990 | 34924 ft | 521 kts | 89° |
| 2026-05-08 07:42 | 21.22313 | 105.86716 | 34922 ft | 521 kts | 88° |
| 2026-05-08 07:42 | 21.22481 | 105.94439 | 34918 ft | 522 kts | 88° |
| 2026-05-08 07:43 | 21.23006 | 106.02149 | 34707 ft | 515 kts | 76° |
| 2026-05-08 07:43 | 21.24073 | 106.05783 | 34086 ft | 512 kts | 66° |
| 2026-05-08 07:43 | 21.25682 | 106.09192 | 33093 ft | 514 kts | 57° |
| 2026-05-08 07:43 | 21.27793 | 106.12277 | 31982 ft | 517 kts | 47° |
| 2026-05-08 07:44 | 21.30367 | 106.14935 | 31003 ft | 517 kts | 36° |
| 2026-05-08 07:44 | 21.33337 | 106.17086 | 30520 ft | 506 kts | 26° |
| 2026-05-08 07:44 | 21.36476 | 106.18656 | 30144 ft | 495 kts | 19° |
| 2026-05-08 07:44 | 21.39663 | 106.20037 | 29657 ft | 491 kts | 21° |
| 2026-05-08 07:45 | 21.42651 | 106.21894 | 29004 ft | 493 kts | 36° |
| 2026-05-08 07:45 | 21.45137 | 106.24404 | 28535 ft | 490 kts | 47° |
| 2026-05-08 07:45 | 21.47084 | 106.27365 | 28036 ft | 489 kts | 59° |
| 2026-05-08 07:45 | 21.48457 | 106.30699 | 27477 ft | 488 kts | 71° |
| 2026-05-08 07:46 | 21.49182 | 106.34216 | 26958 ft | 485 kts | 83° |
| 2026-05-08 07:46 | 21.49258 | 106.37827 | 26431 ft | 482 kts | 94° |
| 2026-05-08 07:46 | 21.48687 | 106.41333 | 25904 ft | 479 kts | 106° |
| 2026-05-08 07:46 | 21.47508 | 106.44637 | 25387 ft | 474 kts | 117° |
| 2026-05-08 07:47 | 21.45773 | 106.47622 | 24862 ft | 470 kts | 128° |
| 2026-05-08 07:47 | 21.43548 | 106.50191 | 24333 ft | 464 kts | 140° |
| 2026-05-08 07:47 | 21.40955 | 106.52228 | 23827 ft | 458 kts | 151° |
| 2026-05-08 07:47 | 21.38114 | 106.53690 | 23311 ft | 452 kts | 161° |
| 2026-05-08 07:48 | 21.35115 | 106.54562 | 22781 ft | 447 kts | 172° |
| 2026-05-08 07:48 | 21.32027 | 106.54835 | 22246 ft | 441 kts | 183° |
| 2026-05-08 07:48 | 21.28969 | 106.54515 | 21729 ft | 436 kts | 193° |
| 2026-05-08 07:48 | 21.26078 | 106.53637 | 21235 ft | 430 kts | 203° |
| 2026-05-08 07:49 | 21.23397 | 106.52246 | 20728 ft | 425 kts | 213° |
| 2026-05-08 07:49 | 21.21019 | 106.50414 | 20217 ft | 420 kts | 223° |
| 2026-05-08 07:49 | 21.18981 | 106.48189 | 19701 ft | 416 kts | 232° |
| 2026-05-08 07:49 | 21.17340 | 106.45660 | 19176 ft | 411 kts | 242° |
| 2026-05-08 07:50 | 21.16133 | 106.42911 | 18664 ft | 407 kts | 251° |
| 2026-05-08 07:50 | 21.15370 | 106.39997 | 18147 ft | 404 kts | 261° |
| 2026-05-08 07:50 | 21.14946 | 106.37037 | 17642 ft | 401 kts | 263° |
| 2026-05-08 07:50 | 21.14585 | 106.34077 | 17111 ft | 399 kts | 264° |
| 2026-05-08 07:51 | 21.14237 | 106.31162 | 16605 ft | 397 kts | 263° |
| 2026-05-08 07:51 | 21.13882 | 106.28262 | 16351 ft | 387 kts | 263° |
| 2026-05-08 07:51 | 21.13534 | 106.25446 | 16157 ft | 377 kts | 263° |
| 2026-05-08 07:51 | 21.13190 | 106.22690 | 15974 ft | 367 kts | 263° |
| 2026-05-08 07:52 | 21.12851 | 106.20013 | 15787 ft | 358 kts | 263° |
| 2026-05-08 07:52 | 21.12526 | 106.17432 | 15615 ft | 348 kts | 263° |
| 2026-05-08 07:52 | 21.12202 | 106.14880 | 15438 ft | 340 kts | 263° |
| 2026-05-08 07:52 | 21.11885 | 106.12404 | 15220 ft | 328 kts | 263° |
| 2026-05-08 07:53 | 21.11594 | 106.10137 | 15006 ft | 317 kts | 263° |
| 2026-05-08 07:53 | 21.11302 | 106.07846 | 14796 ft | 307 kts | 263° |
| 2026-05-08 07:53 | 21.11015 | 106.05602 | 14587 ft | 297 kts | 263° |
| 2026-05-08 07:53 | 21.10739 | 106.03447 | 14379 ft | 287 kts | 263° |
| 2026-05-08 07:54 | 21.10471 | 106.01352 | 14116 ft | 281 kts | 263° |
| 2026-05-08 07:54 | 21.10206 | 105.99287 | 13769 ft | 279 kts | 263° |
| 2026-05-08 07:54 | 21.09946 | 105.97265 | 13627 ft | 267 kts | 263° |
| 2026-05-08 07:54 | 21.09700 | 105.95346 | 13410 ft | 257 kts | 263° |
| 2026-05-08 07:55 | 21.09457 | 105.93457 | 13042 ft | 252 kts | 263° |
| 2026-05-08 07:55 | 21.09222 | 105.91613 | 12618 ft | 250 kts | 263° |
| 2026-05-08 07:55 | 21.08986 | 105.89783 | 12181 ft | 248 kts | 263° |
| 2026-05-08 07:55 | 21.08754 | 105.87978 | 11746 ft | 246 kts | 262° |
| 2026-05-08 07:56 | 21.08521 | 105.86174 | 11310 ft | 245 kts | 262° |
| 2026-05-08 07:56 | 21.08290 | 105.84384 | 10870 ft | 243 kts | 262° |
| 2026-05-08 07:56 | 21.08059 | 105.82601 | 10448 ft | 241 kts | 261° |
| 2026-05-08 07:56 | 21.07831 | 105.80842 | 10023 ft | 238 kts | 261° |
| 2026-05-08 07:57 | 21.07606 | 105.79106 | 9610 ft | 236 kts | 261° |
| 2026-05-08 07:57 | 21.07380 | 105.77368 | 9189 ft | 233 kts | 261° |
| 2026-05-08 07:57 | 21.07156 | 105.75665 | 8769 ft | 231 kts | 261° |
| 2026-05-08 07:57 | 21.06932 | 105.73962 | 8347 ft | 230 kts | 261° |
| 2026-05-08 07:58 | 21.06711 | 105.72275 | 7924 ft | 229 kts | 261° |
| 2026-05-08 07:58 | 21.06492 | 105.70599 | 7503 ft | 227 kts | 261° |
| 2026-05-08 07:58 | 21.06273 | 105.68935 | 7087 ft | 226 kts | 261° |
| 2026-05-08 07:58 | 21.06058 | 105.67277 | 6678 ft | 224 kts | 262° |
| 2026-05-08 07:59 | 21.05846 | 105.65646 | 6288 ft | 222 kts | 262° |
| 2026-05-08 07:59 | 21.05708 | 105.64028 | 5878 ft | 221 kts | 275° |
| 2026-05-08 07:59 | 21.06376 | 105.62566 | 5406 ft | 221 kts | 317° |
| 2026-05-08 07:59 | 21.07716 | 105.61829 | 4987 ft | 219 kts | 345° |
| 2026-05-08 08:00 | 21.09186 | 105.61408 | 4594 ft | 217 kts | 346° |
| 2026-05-08 08:00 | 21.10631 | 105.60984 | 4308 ft | 210 kts | 346° |
| 2026-05-08 08:00 | 21.12007 | 105.60567 | 4098 ft | 200 kts | 346° |
| 2026-05-08 08:00 | 21.13322 | 105.60161 | 3841 ft | 193 kts | 346° |
| 2026-05-08 08:01 | 21.14598 | 105.59763 | 3568 ft | 186 kts | 346° |
| 2026-05-08 08:01 | 21.15812 | 105.59380 | 3332 ft | 176 kts | 346° |
| 2026-05-08 08:01 | 21.16973 | 105.59016 | 3009 ft | 172 kts | 349° |
| 2026-05-08 08:01 | 21.18143 | 105.58973 | 2619 ft | 168 kts | 12° |
| 2026-05-08 08:02 | 21.19248 | 105.59341 | 2446 ft | 166 kts | 21° |
| 2026-05-08 08:02 | 21.20335 | 105.59781 | 2433 ft | 167 kts | 22° |
| 2026-05-08 08:02 | 21.21417 | 105.60225 | 2426 ft | 167 kts | 22° |
| 2026-05-08 08:02 | 21.22517 | 105.60674 | 2422 ft | 167 kts | 22° |
| 2026-05-08 08:03 | 21.23593 | 105.61110 | 2420 ft | 167 kts | 22° |
| 2026-05-08 08:03 | 21.24687 | 105.61551 | 2420 ft | 166 kts | 22° |
| 2026-05-08 08:03 | 21.25769 | 105.62007 | 2421 ft | 166 kts | 30° |
| 2026-05-08 08:03 | 21.26542 | 105.62888 | 2414 ft | 164 kts | 66° |
| 2026-05-08 08:04 | 21.26686 | 105.64090 | 2419 ft | 166 kts | 98° |
| 2026-05-08 08:04 | 21.26378 | 105.65281 | 2427 ft | 168 kts | 104° |
| 2026-05-08 08:04 | 21.26019 | 105.66492 | 2424 ft | 169 kts | 105° |
| 2026-05-08 08:04 | 21.25660 | 105.67694 | 2421 ft | 169 kts | 105° |
| 2026-05-08 08:05 | 21.25306 | 105.68893 | 2420 ft | 169 kts | 105° |
| 2026-05-08 08:05 | 21.24955 | 105.70090 | 2330 ft | 174 kts | 105° |
| 2026-05-08 08:05 | 21.24602 | 105.71371 | 1640 ft | 185 kts | 103° |
| 2026-05-08 08:05 | 21.24257 | 105.72716 | 1021 ft | 188 kts | 105° |
| 2026-05-08 08:06 | 21.23836 | 105.73993 | 721 ft | 174 kts | 107° |
| 2026-05-08 08:06 | 21.23463 | 105.75151 | 547 ft | 155 kts | 107° |
| 2026-05-08 08:06 | 21.23149 | 105.76215 | 397 ft | 147 kts | 105° |
| 2026-05-08 08:06 | 21.22851 | 105.77258 | 298 ft | 146 kts | 104° |
| 2026-05-08 08:07 | 21.22560 | 105.78302 | 147 ft | 142 kts | 106° |
| 2026-05-08 08:07 | 21.22282 | 105.79258 | 55 ft | 120 kts | 107° |
| 2026-05-08 08:07 | 21.22063 | 105.80017 | 54 ft | 95 kts | 109° |
| 2026-05-08 08:07 | 21.21919 | 105.80553 | 56 ft | 53 kts | 108° |
| 2026-05-08 08:08 | 21.21864 | 105.80731 | 56 ft | 2 kts | 132° |
| 2026-05-08 08:08 | 21.21845 | 105.80730 | 56 ft | 3 kts | 211° |
| 2026-05-08 08:08 | 21.21822 | 105.80720 | 56 ft | 4 kts | 200° |
| 2026-05-08 08:08 | 21.21786 | 105.80706 | 56 ft | 6 kts | 199° |
| 2026-05-08 08:09 | 21.21703 | 105.80680 | 56 ft | 15 kts | 195° |
| 2026-05-08 08:09 | 21.21618 | 105.80673 | 57 ft | 8 kts | 151° |
| 2026-05-08 08:09 | 21.21596 | 105.80713 | 57 ft | 9 kts | 107° |
| 2026-05-08 08:09 | 21.21579 | 105.80781 | 58 ft | 2 kts | 120° |
| 2026-05-08 08:10 | 21.21558 | 105.80791 | 58 ft | 4 kts | 176° |
| 2026-05-08 08:10 | 21.21521 | 105.80787 | 59 ft | 6 kts | 188° |
| 2026-05-08 08:10 | 21.21485 | 105.80776 | 59 ft | 2 kts | 193° |
| 2026-05-08 08:10 | 21.21452 | 105.80800 | 59 ft | 8 kts | 121° |
| 2026-05-08 08:11 | 21.21442 | 105.80823 | 59 ft | 1 kts | 112° |
| 2026-05-08 08:11 | 21.21441 | 105.80825 | 59 ft | 0 kts | 111° |
| 2026-05-08 08:11 | 21.21440 | 105.80827 | 59 ft | 0 kts | 111° |